Time,TemperatureF,DewpointF,PressureIn,WindDirection,WindDirectionDegrees,WindSpeedMPH,WindSpeedGustMPH,Humidity,HourlyPrecipIn,Conditions,Clouds,dailyrainin,SoftwareType,DateUTC
2013-03-20 00:00:00,2.6,-1.1,30.16,NE,54,0.0,2.0,84,0.00,,---,0.00,VWS V14.01,2013-03-20 08:00:00,
2013-03-20 00:01:00,2.4,-1.3,30.16,NE,54,1.0,2.0,84,0.00,,---,0.00,VWS V14.01,2013-03-20 08:01:00,
2013-03-20 00:04:00,2.1,-1.9,30.16,NE,54,0.0,0.0,83,0.00,,---,0.00,VWS V14.01,2013-03-20 08:04:00,
2013-03-20 00:05:00,2.1,-1.6,30.16,NE,54,1.0,1.0,84,0.00,,---,0.00,VWS V14.01,2013-03-20 08:05:00,
2013-03-20 00:06:00,2.0,-1.7,30.16,NE,54,0.0,0.0,84,0.00,,---,0.00,VWS V14.01,2013-03-20 08:06:00,
2013-03-20 00:10:00,1.7,-2.0,30.16,NNE,28,2.0,2.0,84,0.00,,---,0.00,VWS V14.01,2013-03-20 08:10:00,
2013-03-20 00:12:00,1.7,-1.8,30.16,North,360,3.0,3.0,85,0.00,,---,0.00,VWS V14.01,2013-03-20 08:12:00,
2013-03-20 00:15:00,1.5,-2.0,30.16,North,350,2.0,3.0,85,0.00,,---,0.00,VWS V14.01,2013-03-20 08:15:00,
2013-03-20 00:17:00,1.3,-2.4,30.16,NNE,22,3.0,3.0,84,0.00,,---,0.00,VWS V14.01,2013-03-20 08:17:00,
2013-03-20 00:20:00,1.2,-2.2,30.15,NE,34,3.0,4.0,85,0.00,,---,0.00,VWS V14.01,2013-03-20 08:20:00,
2013-03-20 00:21:00,1.2,-2.2,30.15,NE,38,3.0,4.0,85,0.00,,---,0.00,VWS V14.01,2013-03-20 08:21:00,
2013-03-20 00:22:00,1.2,-2.2,30.15,NNE,33,3.0,3.0,85,0.00,,---,0.00,VWS V14.01,2013-03-20 08:22:00,
2013-03-20 00:25:00,1.3,-2.2,30.15,NNE,13,2.0,3.0,85,0.00,,---,0.00,VWS V14.01,2013-03-20 08:25:00,
2013-03-20 00:26:00,1.3,-2.2,30.15,NW,309,3.0,3.0,85,0.00,,---,0.00,VWS V14.01,2013-03-20 08:26:00,
2013-03-20 00:27:00,1.3,-2.2,30.15,WNW,302,3.0,4.0,85,0.00,,---,0.00,VWS V14.01,2013-03-20 08:27:00,
2013-03-20 00:30:00,1.2,-2.2,30.15,NW,306,2.0,4.0,85,0.00,,---,0.00,VWS V14.01,2013-03-20 08:30:00,
2013-03-20 00:31:00,1.2,-2.2,30.15,NW,311,1.0,4.0,85,0.00,,---,0.00,VWS V14.01,2013-03-20 08:31:00,
2013-03-20 00:32:00,1.3,-2.2,30.15,NW,313,1.0,2.0,85,0.00,,---,0.00,VWS V14.01,2013-03-20 08:32:00,
2013-03-20 00:35:00,1.6,-1.9,30.15,NNW,347,1.0,2.0,85,0.00,,---,0.00,VWS V14.01,2013-03-20 08:35:00,
2013-03-20 00:37:00,1.7,-1.8,30.14,North,5,2.0,2.0,85,0.00,,---,0.00,VWS V14.01,2013-03-20 08:37:00,
2013-03-20 00:40:00,2.0,-1.5,30.14,North,360,2.0,3.0,85,0.00,,---,0.00,VWS V14.01,2013-03-20 08:40:00,
2013-03-20 00:41:00,2.0,-1.5,30.14,North,360,2.0,3.0,85,0.00,,---,0.00,VWS V14.01,2013-03-20 08:41:00,
2013-03-20 00:42:00,2.0,-1.5,30.14,NNE,19,2.0,2.0,85,0.00,,---,0.00,VWS V14.01,2013-03-20 08:42:00,
2013-03-20 00:45:00,2.4,-1.1,30.12,North,355,3.0,4.0,85,0.00,,---,0.00,VWS V14.01,2013-03-20 08:45:00,
2013-03-20 00:46:00,2.5,-1.0,30.12,NNW,340,1.0,4.0,85,0.00,,---,0.00,VWS V14.01,2013-03-20 08:46:00,
2013-03-20 00:47:00,2.5,-1.0,30.12,NNW,334,3.0,3.0,85,0.00,,---,0.00,VWS V14.01,2013-03-20 08:47:00,
2013-03-20 00:48:00,2.6,-0.9,30.12,WNW,302,3.0,3.0,85,0.00,,---,0.00,VWS V14.01,2013-03-20 08:48:00,
2013-03-20 00:50:00,2.5,-1.0,30.12,NNW,336,2.0,4.0,85,0.00,,---,0.00,VWS V14.01,2013-03-20 08:50:00,
2013-03-20 00:51:00,3.0,-0.5,30.14,WSW,246,3.0,6.0,85,0.00,,---,0.00,VWS V14.01,2013-03-20 08:51:00,
2013-03-20 00:52:00,3.1,-0.4,30.14,West,260,1.0,2.0,85,0.00,,---,0.00,VWS V14.01,2013-03-20 08:52:00,
2013-03-20 00:53:00,3.2,-0.3,30.14,West,260,1.0,2.0,85,0.00,,---,0.00,VWS V14.01,2013-03-20 08:53:00,
2013-03-20 00:55:00,3.1,-0.4,30.14,WSW,256,2.0,6.0,85,0.00,,---,0.00,VWS V14.01,2013-03-20 08:55:00,
2013-03-20 00:56:00,3.7,0.5,30.14,ENE,61,3.0,3.0,86,0.00,,---,0.00,VWS V14.01,2013-03-20 08:56:00,
2013-03-20 00:57:00,3.8,0.6,30.14,ENE,70,3.0,4.0,86,0.00,,---,0.00,VWS V14.01,2013-03-20 08:57:00,
2013-03-20 00:58:00,4.0,0.8,30.14,ENE,65,6.0,6.0,86,0.00,,---,0.00,VWS V14.01,2013-03-20 08:58:00,
2013-03-20 01:00:00,3.8,0.6,30.14,ENE,72,3.0,3.0,86,0.00,,---,0.00,VWS V14.01,2013-03-20 09:00:00,
2013-03-20 01:01:00,4.9,1.6,30.14,NE,40,6.0,7.0,86,0.00,,---,0.00,VWS V14.01,2013-03-20 09:01:00,
2013-03-20 01:02:00,5.2,1.7,30.14,NNE,26,7.0,7.0,85,0.00,,---,0.00,VWS V14.01,2013-03-20 09:02:00,
2013-03-20 01:03:00,5.6,2.1,30.14,NNE,25,4.0,7.0,85,0.00,,---,0.00,VWS V14.01,2013-03-20 09:03:00,
2013-03-20 01:05:00,4.9,1.6,30.14,NNE,28,7.0,7.0,86,0.00,,---,0.00,VWS V14.01,2013-03-20 09:05:00,
2013-03-20 01:06:00,6.6,3.1,30.13,NW,311,3.0,7.0,85,0.00,,---,0.00,VWS V14.01,2013-03-20 09:06:00,
2013-03-20 01:07:00,6.7,3.2,30.13,NW,313,2.0,4.0,85,0.00,,---,0.00,VWS V14.01,2013-03-20 09:07:00,
2013-03-20 01:08:00,6.8,3.3,30.13,NW,305,5.0,5.0,85,0.00,,---,0.00,VWS V14.01,2013-03-20 09:08:00,
2013-03-20 01:10:00,6.6,3.1,30.13,NW,311,3.0,7.0,85,0.00,,---,0.00,VWS V14.01,2013-03-20 09:10:00,
2013-03-20 01:12:00,6.7,2.1,30.13,NNW,340,3.0,4.0,81,0.00,,---,0.00,VWS V14.01,2013-03-20 09:12:00,
2013-03-20 01:13:00,6.4,1.3,30.13,NNW,328,4.0,6.0,79,0.00,,---,0.00,VWS V14.01,2013-03-20 09:13:00,
2013-03-20 01:15:00,6.7,2.1,30.13,NW,311,4.0,6.0,81,0.00,,---,0.00,VWS V14.01,2013-03-20 09:15:00,
2013-03-20 01:17:00,5.9,1.1,30.12,North,355,2.0,2.0,80,0.00,,---,0.00,VWS V14.01,2013-03-20 09:17:00,
2013-03-20 01:18:00,5.8,1.0,30.12,NNE,32,2.0,3.0,80,0.00,,---,0.00,VWS V14.01,2013-03-20 09:18:00,
2013-03-20 01:20:00,5.9,1.1,30.12,North,355,2.0,6.0,80,0.00,,---,0.00,VWS V14.01,2013-03-20 09:20:00,
2013-03-20 01:22:00,5.5,0.7,30.12,NNE,32,1.0,2.0,80,0.00,,---,0.00,VWS V14.01,2013-03-20 09:22:00,
2013-03-20 01:23:00,5.5,0.9,30.12,North,5,3.0,3.0,81,0.00,,---,0.00,VWS V14.01,2013-03-20 09:23:00,
2013-03-20 01:25:00,5.5,0.7,30.12,NNE,32,1.0,3.0,80,0.00,,---,0.00,VWS V14.01,2013-03-20 09:25:00,
2013-03-20 01:27:00,5.4,1.1,30.12,NNE,13,2.0,3.0,82,0.00,,---,0.00,VWS V14.01,2013-03-20 09:27:00,
2013-03-20 01:28:00,5.5,1.2,30.12,NE,46,3.0,4.0,82,0.00,,---,0.00,VWS V14.01,2013-03-20 09:28:00,
2013-03-20 01:30:00,5.4,1.1,30.12,North,5,3.0,3.0,82,0.00,,---,0.00,VWS V14.01,2013-03-20 09:30:00,
2013-03-20 01:32:00,5.6,1.0,30.11,NNE,18,2.0,3.0,81,0.00,,---,0.00,VWS V14.01,2013-03-20 09:32:00,
2013-03-20 01:33:00,5.6,1.0,30.11,NNE,24,2.0,3.0,81,0.00,,---,0.00,VWS V14.01,2013-03-20 09:33:00,
2013-03-20 01:35:00,5.6,1.3,30.11,NNE,18,3.0,5.0,82,0.00,,---,0.00,VWS V14.01,2013-03-20 09:35:00,
2013-03-20 01:37:00,6.0,2.0,30.11,North,11,4.0,5.0,83,0.00,,---,0.00,VWS V14.01,2013-03-20 09:37:00,
2013-03-20 01:38:00,6.1,2.1,30.11,North,10,5.0,5.0,83,0.00,,---,0.00,VWS V14.01,2013-03-20 09:38:00,
2013-03-20 01:40:00,5.8,1.5,30.11,North,11,3.0,5.0,82,0.00,,---,0.00,VWS V14.01,2013-03-20 09:40:00,
2013-03-20 01:42:00,6.6,2.5,30.11,North,11,4.0,5.0,83,0.00,,---,0.00,VWS V14.01,2013-03-20 09:42:00,
2013-03-20 01:43:00,6.6,2.5,30.11,North,11,5.0,5.0,83,0.00,,---,0.00,VWS V14.01,2013-03-20 09:43:00,
2013-03-20 01:45:00,6.6,2.5,30.11,North,355,3.0,5.0,83,0.00,,---,0.00,VWS V14.01,2013-03-20 09:45:00,
2013-03-20 01:48:00,6.8,2.7,30.11,North,355,4.0,5.0,83,0.00,,---,0.00,VWS V14.01,2013-03-20 09:48:00,
2013-03-20 01:50:00,6.8,2.7,30.11,NNW,347,3.0,6.0,83,0.00,,---,0.00,VWS V14.01,2013-03-20 09:50:00,
2013-03-20 01:53:00,6.6,2.3,30.11,NNW,348,4.0,5.0,82,0.00,,---,0.00,VWS V14.01,2013-03-20 09:53:00,
2013-03-20 01:54:00,6.6,2.3,30.11,NNW,343,4.0,5.0,82,0.00,,---,0.00,VWS V14.01,2013-03-20 09:54:00,
2013-03-20 01:55:00,6.7,2.4,30.11,North,5,4.0,5.0,82,0.00,,---,0.00,VWS V14.01,2013-03-20 09:55:00,
2013-03-20 01:58:00,6.3,2.0,30.10,NNW,348,2.0,3.0,82,0.00,,---,0.00,VWS V14.01,2013-03-20 09:58:00,
2013-03-20 01:59:00,6.3,2.0,30.10,NNW,329,2.0,3.0,82,0.00,,---,0.00,VWS V14.01,2013-03-20 09:59:00,
2013-03-20 02:00:00,6.4,2.1,30.10,North,355,3.0,5.0,82,0.00,,---,0.00,VWS V14.01,2013-03-20 10:00:00,
2013-03-20 02:03:00,6.2,2.2,30.10,NNW,346,4.0,4.0,83,0.00,,---,0.00,VWS V14.01,2013-03-20 10:03:00,
2013-03-20 02:04:00,6.2,2.2,30.10,NNW,341,3.0,5.0,83,0.00,,---,0.00,VWS V14.01,2013-03-20 10:04:00,
2013-03-20 02:05:00,6.2,2.2,30.10,NNW,342,2.0,3.0,83,0.00,,---,0.00,VWS V14.01,2013-03-20 10:05:00,
2013-03-20 02:08:00,6.2,2.2,30.10,NNW,331,3.0,3.0,83,0.00,,---,0.00,VWS V14.01,2013-03-20 10:08:00,
2013-03-20 02:09:00,6.2,2.2,30.10,NNW,336,3.0,3.0,83,0.00,,---,0.00,VWS V14.01,2013-03-20 10:09:00,
2013-03-20 02:10:00,6.2,2.2,30.10,NNW,333,2.0,5.0,83,0.00,,---,0.00,VWS V14.01,2013-03-20 10:10:00,
2013-03-20 02:13:00,6.1,2.1,30.10,North,5,4.0,5.0,83,0.00,,---,0.00,VWS V14.01,2013-03-20 10:13:00,
2013-03-20 02:14:00,6.1,2.1,30.10,NNE,13,4.0,5.0,83,0.00,,---,0.00,VWS V14.01,2013-03-20 10:14:00,
2013-03-20 02:15:00,6.1,2.1,30.10,North,5,3.0,4.0,83,0.00,,---,0.00,VWS V14.01,2013-03-20 10:15:00,
2013-03-20 02:19:00,6.1,2.3,30.09,North,355,4.0,5.0,84,0.00,,---,0.00,VWS V14.01,2013-03-20 10:19:00,
2013-03-20 02:20:00,6.1,2.1,30.09,NNE,15,4.0,5.0,83,0.00,,---,0.00,VWS V14.01,2013-03-20 10:20:00,
2013-03-20 02:24:00,6.2,2.4,30.09,North,5,3.0,4.0,84,0.00,,---,0.00,VWS V14.01,2013-03-20 10:24:00,
2013-03-20 02:25:00,6.1,2.3,30.09,North,5,4.0,5.0,84,0.00,,---,0.00,VWS V14.01,2013-03-20 10:25:00,
2013-03-20 02:29:00,6.3,2.5,30.09,North,5,3.0,4.0,84,0.00,,---,0.00,VWS V14.01,2013-03-20 10:29:00,
2013-03-20 02:30:00,6.3,2.5,30.09,NNW,347,1.0,5.0,84,0.00,,---,0.00,VWS V14.01,2013-03-20 10:30:00,
2013-03-20 02:34:00,6.3,2.2,30.08,NE,43,3.0,4.0,83,0.00,,---,0.00,VWS V14.01,2013-03-20 10:34:00,
2013-03-20 02:35:00,6.3,2.2,30.08,NE,54,3.0,4.0,83,0.00,,---,0.00,VWS V14.01,2013-03-20 10:35:00,
2013-03-20 02:39:00,6.6,2.8,30.08,NNW,345,1.0,3.0,84,0.00,,---,0.00,VWS V14.01,2013-03-20 10:39:00,
2013-03-20 02:40:00,6.7,2.9,30.08,NNW,345,1.0,3.0,84,0.00,,---,0.00,VWS V14.01,2013-03-20 10:40:00,
2013-03-20 02:45:00,6.9,3.1,30.08,East,93,1.0,4.0,84,0.00,,---,0.00,VWS V14.01,2013-03-20 10:45:00,
2013-03-20 02:50:00,7.1,3.0,30.08,North,10,3.0,4.0,83,0.00,,---,0.00,VWS V14.01,2013-03-20 10:50:00,
2013-03-20 02:55:00,7.1,3.0,30.07,North,5,2.0,3.0,83,0.00,,---,0.00,VWS V14.01,2013-03-20 10:55:00,
2013-03-20 03:00:00,7.0,2.9,30.08,North,9,2.0,4.0,83,0.00,,---,0.00,VWS V14.01,2013-03-20 11:00:00,
2013-03-20 03:01:00,6.9,2.8,30.07,North,360,2.0,4.0,83,0.00,,---,0.00,VWS V14.01,2013-03-20 11:01:00,
2013-03-20 03:05:00,7.0,2.9,30.07,NNW,328,0.0,3.0,83,0.00,,---,0.00,VWS V14.01,2013-03-20 11:05:00,
2013-03-20 03:06:00,7.0,2.9,30.07,NNW,328,1.0,3.0,83,0.00,,---,0.00,VWS V14.01,2013-03-20 11:06:00,
2013-03-20 03:10:00,7.0,2.9,30.07,NNW,328,0.0,3.0,83,0.00,,---,0.00,VWS V14.01,2013-03-20 11:10:00,
2013-03-20 03:11:00,6.9,3.1,30.07,NNW,329,3.0,4.0,84,0.00,,---,0.00,VWS V14.01,2013-03-20 11:11:00,
2013-03-20 03:15:00,6.9,3.1,30.07,NNW,332,2.0,4.0,84,0.00,,---,0.00,VWS V14.01,2013-03-20 11:15:00,
2013-03-20 03:16:00,7.0,3.2,30.07,NNE,12,3.0,5.0,84,0.00,,---,0.00,VWS V14.01,2013-03-20 11:16:00,
2013-03-20 03:20:00,7.0,3.2,30.07,NNE,12,4.0,5.0,84,0.00,,---,0.00,VWS V14.01,2013-03-20 11:20:00,
2013-03-20 03:21:00,7.0,2.9,30.07,North,360,2.0,4.0,83,0.00,,---,0.00,VWS V14.01,2013-03-20 11:21:00,
2013-03-20 03:22:00,7.0,2.9,30.07,North,360,2.0,2.0,83,0.00,,---,0.00,VWS V14.01,2013-03-20 11:22:00,
2013-03-20 03:25:00,7.0,2.9,30.07,North,360,1.0,4.0,83,0.00,,---,0.00,VWS V14.01,2013-03-20 11:25:00,
2013-03-20 03:26:00,6.9,3.1,30.07,North,355,3.0,4.0,84,0.00,,---,0.00,VWS V14.01,2013-03-20 11:26:00,
2013-03-20 03:27:00,6.9,3.1,30.07,North,360,4.0,4.0,84,0.00,,---,0.00,VWS V14.01,2013-03-20 11:27:00,
2013-03-20 03:30:00,6.9,3.1,30.07,North,355,3.0,4.0,84,0.00,,---,0.00,VWS V14.01,2013-03-20 11:30:00,
2013-03-20 03:35:00,6.9,3.1,30.07,NNW,338,3.0,5.0,84,0.00,,---,0.00,VWS V14.01,2013-03-20 11:35:00,
2013-03-20 03:45:00,7.5,3.9,30.06,NW,322,2.0,3.0,85,0.00,,---,0.00,VWS V14.01,2013-03-20 11:45:00,
2013-03-20 03:50:00,7.7,3.9,30.06,NNE,24,5.0,5.0,84,0.00,,---,0.00,VWS V14.01,2013-03-20 11:50:00,
2013-03-20 03:55:00,8.1,4.5,30.06,NNE,19,3.0,4.0,85,0.00,,---,0.00,VWS V14.01,2013-03-20 11:55:00,
2013-03-20 04:00:00,8.4,4.8,30.05,NNE,28,2.0,3.0,85,0.00,,---,0.00,VWS V14.01,2013-03-20 12:00:00,
2013-03-20 04:01:00,8.5,4.9,30.05,NNE,16,2.0,3.0,85,0.00,,---,0.00,VWS V14.01,2013-03-20 12:01:00,
2013-03-20 04:05:00,8.7,5.1,30.05,NNW,327,2.0,3.0,85,0.00,,---,0.00,VWS V14.01,2013-03-20 12:05:00,
2013-03-20 04:06:00,8.7,5.1,30.05,North,349,2.0,3.0,85,0.00,,---,0.00,VWS V14.01,2013-03-20 12:06:00,
2013-03-20 04:10:00,8.9,5.3,30.05,WNW,295,1.0,3.0,85,0.00,,---,0.00,VWS V14.01,2013-03-20 12:10:00,
2013-03-20 04:11:00,8.8,5.2,30.05,NW,310,2.0,3.0,85,0.00,,---,0.00,VWS V14.01,2013-03-20 12:11:00,
2013-03-20 04:15:00,8.9,5.6,30.04,ENE,72,1.0,3.0,86,0.00,,---,0.00,VWS V14.01,2013-03-20 12:15:00,
2013-03-20 04:16:00,8.9,5.6,30.04,ENE,72,2.0,3.0,86,0.00,,---,0.00,VWS V14.01,2013-03-20 12:16:00,
2013-03-20 04:20:00,9.1,5.8,30.04,NE,43,3.0,4.0,86,0.00,,---,0.00,VWS V14.01,2013-03-20 12:20:00,
2013-03-20 04:21:00,9.1,5.8,30.04,NE,45,4.0,4.0,86,0.00,,---,0.00,VWS V14.01,2013-03-20 12:21:00,
2013-03-20 04:25:00,9.4,6.3,30.03,North,355,0.0,4.0,87,0.00,,---,0.00,VWS V14.01,2013-03-20 12:25:00,
2013-03-20 04:26:00,9.4,6.3,30.03,North,355,0.0,4.0,87,0.00,,---,0.00,VWS V14.01,2013-03-20 12:26:00,
2013-03-20 04:30:00,9.4,6.6,30.03,North,355,0.0,0.0,88,0.00,,---,0.00,VWS V14.01,2013-03-20 12:30:00,
2013-03-20 04:31:00,9.5,6.7,30.03,North,355,0.0,0.0,88,0.00,,---,0.00,VWS V14.01,2013-03-20 12:31:00,
2013-03-20 04:32:00,9.5,6.7,30.03,North,355,0.0,0.0,88,0.00,,---,0.00,VWS V14.01,2013-03-20 12:32:00,
2013-03-20 04:35:00,10.0,7.7,30.03,North,355,0.0,0.0,90,0.00,,---,0.00,VWS V14.01,2013-03-20 12:35:00,
2013-03-20 04:36:00,10.1,7.8,30.03,North,355,0.0,0.0,90,0.00,,---,0.00,VWS V14.01,2013-03-20 12:36:00,
2013-03-20 04:37:00,10.2,8.1,30.03,North,355,0.0,0.0,91,0.00,,---,0.00,VWS V14.01,2013-03-20 12:37:00,
2013-03-20 04:41:00,10.3,8.0,30.03,North,355,0.0,3.0,90,0.00,,---,0.00,VWS V14.01,2013-03-20 12:41:00,
2013-03-20 04:42:00,10.4,8.1,30.03,North,355,0.0,1.0,90,0.00,,---,0.00,VWS V14.01,2013-03-20 12:42:00,
2013-03-20 04:46:00,11.0,8.9,30.03,North,355,0.0,2.0,91,0.00,,---,0.00,VWS V14.01,2013-03-20 12:46:00,
2013-03-20 04:47:00,11.3,9.4,30.03,North,355,0.0,0.0,92,0.00,,---,0.00,VWS V14.01,2013-03-20 12:47:00,
2013-03-20 04:48:00,11.5,9.6,30.03,North,355,0.0,0.0,92,0.00,,---,0.00,VWS V14.01,2013-03-20 12:48:00,
2013-03-20 04:51:00,11.9,10.0,30.03,North,355,0.0,1.0,92,0.00,,---,0.00,VWS V14.01,2013-03-20 12:51:00,
2013-03-20 04:52:00,12.0,10.1,30.03,North,355,0.0,0.0,92,0.00,,---,0.00,VWS V14.01,2013-03-20 12:52:00,
2013-03-20 04:53:00,12.1,10.2,30.03,North,355,0.0,0.0,92,0.00,,---,0.00,VWS V14.01,2013-03-20 12:53:00,
2013-03-20 04:56:00,12.3,10.2,30.03,North,355,0.0,0.0,91,0.00,,---,0.00,VWS V14.01,2013-03-20 12:56:00,
2013-03-20 04:57:00,12.3,10.4,30.03,North,355,0.0,0.0,92,0.00,,---,0.00,VWS V14.01,2013-03-20 12:57:00,
2013-03-20 04:58:00,12.4,10.3,30.02,North,355,0.0,0.0,91,0.00,,---,0.00,VWS V14.01,2013-03-20 12:58:00,
2013-03-20 05:01:00,12.5,10.4,30.02,North,355,0.0,1.0,91,0.00,,---,0.00,VWS V14.01,2013-03-20 13:01:00,
2013-03-20 05:02:00,12.6,10.5,30.02,North,355,0.0,0.0,91,0.00,,---,0.00,VWS V14.01,2013-03-20 13:02:00,
2013-03-20 05:03:00,12.7,10.6,30.02,North,355,0.0,0.0,91,0.00,,---,0.00,VWS V14.01,2013-03-20 13:03:00,
2013-03-20 05:07:00,13.1,11.0,30.02,North,355,0.0,1.0,91,0.00,,---,0.00,VWS V14.01,2013-03-20 13:07:00,
2013-03-20 05:08:00,13.2,11.1,30.02,North,355,0.0,2.0,91,0.00,,---,0.00,VWS V14.01,2013-03-20 13:08:00,
2013-03-20 05:09:00,13.4,11.3,30.02,North,355,0.0,2.0,91,0.00,,---,0.00,VWS V14.01,2013-03-20 13:09:00,
2013-03-20 05:12:00,13.9,11.8,30.02,North,355,0.0,2.0,91,0.00,,---,0.00,VWS V14.01,2013-03-20 13:12:00,
2013-03-20 05:13:00,14.0,12.1,30.02,North,355,0.0,2.0,92,0.00,,---,0.00,VWS V14.01,2013-03-20 13:13:00,
2013-03-20 05:14:00,14.1,12.0,30.02,North,355,1.0,2.0,91,0.00,,---,0.00,VWS V14.01,2013-03-20 13:14:00,
2013-03-20 05:17:00,14.4,12.3,30.01,North,355,0.0,0.0,91,0.00,,---,0.00,VWS V14.01,2013-03-20 13:17:00,
2013-03-20 05:18:00,14.5,12.4,30.01,North,355,0.0,0.0,91,0.00,,---,0.00,VWS V14.01,2013-03-20 13:18:00,
2013-03-20 05:19:00,14.5,12.4,30.01,North,355,0.0,0.0,91,0.00,,---,0.00,VWS V14.01,2013-03-20 13:19:00,
2013-03-20 05:22:00,14.5,12.1,30.01,North,355,1.0,3.0,90,0.00,,---,0.00,VWS V14.01,2013-03-20 13:22:00,
2013-03-20 05:23:00,14.5,12.1,30.01,North,355,1.0,3.0,90,0.00,,---,0.00,VWS V14.01,2013-03-20 13:23:00,
2013-03-20 05:24:00,14.5,11.9,30.01,North,355,0.0,3.0,89,0.00,,---,0.00,VWS V14.01,2013-03-20 13:24:00,
2013-03-20 05:27:00,14.5,11.9,30.01,North,355,0.0,0.0,89,0.00,,---,0.00,VWS V14.01,2013-03-20 13:27:00,
2013-03-20 05:28:00,14.5,11.9,30.01,North,355,0.0,0.0,89,0.00,,---,0.00,VWS V14.01,2013-03-20 13:28:00,
2013-03-20 05:29:00,14.4,11.8,30.01,North,355,2.0,3.0,89,0.00,,---,0.00,VWS V14.01,2013-03-20 13:29:00,
2013-03-20 05:33:00,14.0,11.1,30.01,North,355,0.0,2.0,88,0.00,,---,0.00,VWS V14.01,2013-03-20 13:33:00,
2013-03-20 05:34:00,13.9,10.8,30.01,North,355,0.0,2.0,87,0.00,,---,0.00,VWS V14.01,2013-03-20 13:34:00,
2013-03-20 05:38:00,13.5,10.4,30.01,North,355,0.0,0.0,87,0.00,,---,0.00,VWS V14.01,2013-03-20 13:38:00,
2013-03-20 05:39:00,13.4,10.3,30.00,North,355,1.0,4.0,87,0.00,,---,0.00,VWS V14.01,2013-03-20 13:39:00,
2013-03-20 05:43:00,13.0,9.9,30.00,North,355,0.0,0.0,87,0.00,,---,0.00,VWS V14.01,2013-03-20 13:43:00,
2013-03-20 05:44:00,12.9,9.8,30.00,North,355,0.0,0.0,87,0.00,,---,0.00,VWS V14.01,2013-03-20 13:44:00,
2013-03-20 05:48:00,12.7,9.6,30.00,North,355,0.0,0.0,87,0.00,,---,0.00,VWS V14.01,2013-03-20 13:48:00,
2013-03-20 05:49:00,12.6,9.5,30.00,North,355,0.0,0.0,87,0.00,,---,0.00,VWS V14.01,2013-03-20 13:49:00,
2013-03-20 05:53:00,12.2,9.1,30.00,North,355,0.0,0.0,87,0.00,,---,0.00,VWS V14.01,2013-03-20 13:53:00,
2013-03-20 05:54:00,12.1,9.0,30.00,North,355,0.0,0.0,87,0.00,,---,0.00,VWS V14.01,2013-03-20 13:54:00,
2013-03-20 05:58:00,11.5,8.1,30.00,North,355,0.0,0.0,86,0.00,,---,0.00,VWS V14.01,2013-03-20 13:58:00,
2013-03-20 05:59:00,11.3,7.9,30.00,North,355,0.0,0.0,86,0.00,,---,0.00,VWS V14.01,2013-03-20 13:59:00,
2013-03-20 06:03:00,10.7,7.3,30.00,North,355,0.0,0.0,86,0.00,,---,0.00,VWS V14.01,2013-03-20 14:03:00,
2013-03-20 06:04:00,10.7,7.3,30.00,North,355,0.0,0.0,86,0.00,,---,0.00,VWS V14.01,2013-03-20 14:04:00,
2013-03-20 06:09:00,9.9,6.6,30.00,North,355,0.0,0.0,86,0.00,,---,0.00,VWS V14.01,2013-03-20 14:09:00,
2013-03-20 06:10:00,9.7,6.4,30.00,North,355,0.0,0.0,86,0.00,,---,0.00,VWS V14.01,2013-03-20 14:10:00,
2013-03-20 06:14:00,9.3,6.2,29.99,North,355,0.0,0.0,87,0.00,,---,0.00,VWS V14.01,2013-03-20 14:14:00,
2013-03-20 06:15:00,9.1,6.0,30.00,North,355,0.0,0.0,87,0.00,,---,0.00,VWS V14.01,2013-03-20 14:15:00,
2013-03-20 06:19:00,8.8,5.7,30.00,North,355,0.0,0.0,87,0.00,,---,0.00,VWS V14.01,2013-03-20 14:19:00,
2013-03-20 06:20:00,8.6,5.5,30.00,North,355,0.0,0.0,87,0.00,,---,0.00,VWS V14.01,2013-03-20 14:20:00,
2013-03-20 06:24:00,8.3,5.2,29.99,North,355,0.0,0.0,87,0.00,,---,0.00,VWS V14.01,2013-03-20 14:24:00,
2013-03-20 06:25:00,8.2,5.1,29.99,North,355,0.0,0.0,87,0.00,,---,0.00,VWS V14.01,2013-03-20 14:25:00,
2013-03-20 06:29:00,8.0,4.9,29.99,North,355,0.0,0.0,87,0.00,,---,0.00,VWS V14.01,2013-03-20 14:29:00,
2013-03-20 06:30:00,7.9,5.1,29.99,North,355,0.0,0.0,88,0.00,,---,0.00,VWS V14.01,2013-03-20 14:30:00,
2013-03-20 06:35:00,7.6,4.8,29.99,WSW,255,2.0,6.0,88,0.00,,---,0.00,VWS V14.01,2013-03-20 14:35:00,
2013-03-20 06:36:00,7.5,4.4,29.99,WSW,255,0.0,6.0,87,0.00,,---,0.00,VWS V14.01,2013-03-20 14:36:00,
2013-03-20 06:40:00,7.3,4.5,29.99,WSW,255,0.0,2.0,88,0.00,,---,0.00,VWS V14.01,2013-03-20 14:40:00,
2013-03-20 06:41:00,7.4,4.8,29.99,WSW,255,1.0,2.0,89,0.00,,---,0.00,VWS V14.01,2013-03-20 14:41:00,
2013-03-20 06:45:00,7.6,5.0,29.99,WSW,255,0.0,0.0,89,0.00,,---,0.00,VWS V14.01,2013-03-20 14:45:00,
2013-03-20 06:46:00,7.6,5.0,29.99,WSW,255,0.0,0.0,89,0.00,,---,0.00,VWS V14.01,2013-03-20 14:46:00,
2013-03-20 06:47:00,7.6,5.0,29.99,WSW,255,0.0,0.0,89,0.00,,---,0.00,VWS V14.01,2013-03-20 14:47:00,
2013-03-20 06:50:00,7.5,4.9,29.99,WSW,255,0.0,0.0,89,0.00,,---,0.00,VWS V14.01,2013-03-20 14:50:00,
2013-03-20 06:51:00,7.5,4.9,29.99,WSW,255,0.0,0.0,89,0.00,,---,0.00,VWS V14.01,2013-03-20 14:51:00,
2013-03-20 06:52:00,7.4,4.8,29.99,WSW,255,0.0,0.0,89,0.00,,---,0.00,VWS V14.01,2013-03-20 14:52:00,
2013-03-20 06:55:00,7.4,4.8,29.99,WSW,255,0.0,2.0,89,0.00,,---,0.00,VWS V14.01,2013-03-20 14:55:00,
2013-03-20 06:56:00,7.5,4.9,29.99,WSW,255,0.0,2.0,89,0.00,,---,0.00,VWS V14.01,2013-03-20 14:56:00,
2013-03-20 06:57:00,7.6,5.3,29.99,WSW,255,0.0,0.0,90,0.00,,---,0.00,VWS V14.01,2013-03-20 14:57:00,
2013-03-20 07:00:00,8.2,6.1,29.98,WSW,255,0.0,4.0,91,0.00,,---,0.00,VWS V14.01,2013-03-20 15:00:00,
2013-03-20 07:02:00,8.8,6.9,29.99,WSW,255,2.0,4.0,92,0.00,,---,0.00,VWS V14.01,2013-03-20 15:02:00,
2013-03-20 07:05:00,9.5,7.7,29.99,WSW,255,2.0,4.0,92,0.00,,---,0.00,VWS V14.01,2013-03-20 15:05:00,
2013-03-20 07:07:00,9.7,7.8,29.99,WSW,255,2.0,3.0,92,0.00,,---,0.00,VWS V14.01,2013-03-20 15:07:00,
2013-03-20 07:08:00,9.9,8.1,29.99,WSW,256,2.0,4.0,92,0.00,,---,0.00,VWS V14.01,2013-03-20 15:08:00,
2013-03-20 07:10:00,10.2,8.1,29.99,West,273,4.0,5.0,91,0.00,,---,0.00,VWS V14.01,2013-03-20 15:10:00,
2013-03-20 07:11:00,10.4,8.3,29.99,West,273,1.0,1.0,91,0.00,,---,0.00,VWS V14.01,2013-03-20 15:11:00,
2013-03-20 07:13:00,10.6,8.5,29.99,West,273,1.0,2.0,91,0.00,,---,0.00,VWS V14.01,2013-03-20 15:13:00,
2013-03-20 07:15:00,10.9,8.8,29.99,West,273,0.0,3.0,91,0.00,,---,0.00,VWS V14.01,2013-03-20 15:15:00,
2013-03-20 07:17:00,11.2,9.1,29.99,West,281,3.0,5.0,91,0.00,,---,0.00,VWS V14.01,2013-03-20 15:17:00,
2013-03-20 07:18:00,11.3,9.2,29.99,WNW,283,4.0,5.0,91,0.00,,---,0.00,VWS V14.01,2013-03-20 15:18:00,
2013-03-20 07:19:00,11.5,9.4,29.99,WNW,293,2.0,6.0,91,0.00,,---,0.00,VWS V14.01,2013-03-20 15:19:00,
2013-03-20 07:21:00,11.9,9.8,29.99,NW,311,2.0,6.0,91,0.00,,---,0.00,VWS V14.01,2013-03-20 15:21:00,
2013-03-20 07:23:00,12.3,10.2,29.99,NW,323,4.0,6.0,91,0.00,,---,0.00,VWS V14.01,2013-03-20 15:23:00,
2013-03-20 07:24:00,12.6,10.2,29.99,NW,325,4.0,6.0,90,0.00,,---,0.00,VWS V14.01,2013-03-20 15:24:00,
2013-03-20 07:26:00,12.6,10.2,29.99,NW,325,2.0,6.0,90,0.00,,---,0.00,VWS V14.01,2013-03-20 15:26:00,
2013-03-20 07:28:00,12.8,10.2,29.99,NW,325,0.0,0.0,89,0.00,,---,0.00,VWS V14.01,2013-03-20 15:28:00,
2013-03-20 07:29:00,12.9,10.3,29.99,NW,325,0.0,0.0,89,0.00,,---,0.00,VWS V14.01,2013-03-20 15:29:00,
2013-03-20 07:31:00,13.0,10.4,29.99,NW,325,0.0,2.0,89,0.00,,---,0.00,VWS V14.01,2013-03-20 15:31:00,
2013-03-20 07:33:00,13.0,10.1,29.99,NW,325,0.0,2.0,88,0.00,,---,0.00,VWS V14.01,2013-03-20 15:33:00,
2013-03-20 07:34:00,13.1,10.2,29.99,NW,325,0.0,2.0,88,0.00,,---,0.00,VWS V14.01,2013-03-20 15:34:00,
2013-03-20 07:37:00,13.0,10.1,29.98,NW,325,0.0,0.0,88,0.00,,---,0.00,VWS V14.01,2013-03-20 15:37:00,
2013-03-20 07:38:00,13.0,9.9,29.98,NW,325,0.0,0.0,87,0.00,,---,0.00,VWS V14.01,2013-03-20 15:38:00,
2013-03-20 07:39:00,12.8,9.7,29.98,NW,325,0.0,0.0,87,0.00,,---,0.00,VWS V14.01,2013-03-20 15:39:00,
2013-03-20 07:42:00,12.6,9.5,29.98,NW,325,0.0,0.0,87,0.00,,---,0.00,VWS V14.01,2013-03-20 15:42:00,
2013-03-20 07:43:00,12.5,9.1,29.98,NW,325,0.0,0.0,86,0.00,,---,0.00,VWS V14.01,2013-03-20 15:43:00,
2013-03-20 07:44:00,12.4,9.0,29.98,NW,325,3.0,4.0,86,0.00,,---,0.00,VWS V14.01,2013-03-20 15:44:00,
2013-03-20 07:47:00,12.0,8.4,29.98,NW,325,3.0,3.0,85,0.00,,---,0.00,VWS V14.01,2013-03-20 15:47:00,
2013-03-20 07:48:00,11.8,8.2,29.99,NW,325,2.0,4.0,85,0.00,,---,0.00,VWS V14.01,2013-03-20 15:48:00,
2013-03-20 07:49:00,11.7,8.1,29.98,NW,325,1.0,4.0,85,0.00,,---,0.00,VWS V14.01,2013-03-20 15:49:00,
2013-03-20 07:50:00,11.6,8.0,29.98,NW,325,2.0,4.0,85,0.00,,---,0.00,VWS V14.01,2013-03-20 15:50:00,
2013-03-20 07:52:00,11.5,8.1,29.98,NW,325,2.0,2.0,86,0.00,,---,0.00,VWS V14.01,2013-03-20 15:52:00,
2013-03-20 07:53:00,11.4,8.0,29.98,NW,325,0.0,2.0,86,0.00,,---,0.00,VWS V14.01,2013-03-20 15:53:00,
2013-03-20 07:54:00,11.4,8.0,29.98,NW,325,0.0,2.0,86,0.00,,---,0.00,VWS V14.01,2013-03-20 15:54:00,
2013-03-20 07:55:00,11.3,7.9,29.98,NW,325,0.0,2.0,86,0.00,,---,0.00,VWS V14.01,2013-03-20 15:55:00,
2013-03-20 07:58:00,11.2,7.8,29.98,NW,325,0.0,0.0,86,0.00,,---,0.00,VWS V14.01,2013-03-20 15:58:00,
2013-03-20 07:59:00,11.0,7.4,29.98,NW,325,0.0,1.0,85,0.00,,---,0.00,VWS V14.01,2013-03-20 15:59:00,
2013-03-20 08:00:00,10.8,7.2,29.98,NW,325,0.0,1.0,85,0.00,,---,0.00,VWS V14.01,2013-03-20 16:00:00,
2013-03-20 08:03:00,10.4,6.5,29.98,NW,325,0.0,0.0,84,0.00,,---,0.00,VWS V14.01,2013-03-20 16:03:00,
2013-03-20 08:04:00,10.3,6.4,29.98,NW,325,0.0,0.0,84,0.00,,---,0.00,VWS V14.01,2013-03-20 16:04:00,
2013-03-20 08:05:00,10.1,6.0,29.98,NW,325,0.0,0.0,83,0.00,,---,0.00,VWS V14.01,2013-03-20 16:05:00,
2013-03-20 08:08:00,9.7,5.6,29.98,NW,325,0.0,0.0,83,0.00,,---,0.00,VWS V14.01,2013-03-20 16:08:00,
2013-03-20 08:09:00,9.5,5.4,29.98,NW,325,0.0,0.0,83,0.00,,---,0.00,VWS V14.01,2013-03-20 16:09:00,
2013-03-20 08:10:00,9.1,5.0,29.98,NW,325,0.0,0.0,83,0.00,,---,0.00,VWS V14.01,2013-03-20 16:10:00,
2013-03-20 08:13:00,8.7,4.9,29.98,NW,325,0.0,0.0,84,0.00,,---,0.00,VWS V14.01,2013-03-20 16:13:00,
2013-03-20 08:14:00,8.6,4.8,29.98,NW,325,0.0,0.0,84,0.00,,---,0.00,VWS V14.01,2013-03-20 16:14:00,
2013-03-20 08:15:00,8.5,4.9,29.98,NW,325,0.0,0.0,85,0.00,,---,0.00,VWS V14.01,2013-03-20 16:15:00,
2013-03-20 08:18:00,8.3,4.7,29.98,NW,325,0.0,0.0,85,0.00,,---,0.00,VWS V14.01,2013-03-20 16:18:00,
2013-03-20 08:19:00,8.2,4.6,29.98,NW,325,0.0,0.0,85,0.00,,---,0.00,VWS V14.01,2013-03-20 16:19:00,
2013-03-20 08:20:00,8.1,4.8,29.98,NW,325,0.0,0.0,86,0.00,,---,0.00,VWS V14.01,2013-03-20 16:20:00,
2013-03-20 08:23:00,8.0,4.7,29.98,NW,325,0.0,0.0,86,0.00,,---,0.00,VWS V14.01,2013-03-20 16:23:00,
2013-03-20 08:24:00,8.0,4.7,29.98,NW,325,0.0,0.0,86,0.00,,---,0.00,VWS V14.01,2013-03-20 16:24:00,
2013-03-20 08:26:00,8.0,4.9,29.98,NW,325,0.0,0.0,87,0.00,,---,0.00,VWS V14.01,2013-03-20 16:26:00,
2013-03-20 08:28:00,7.9,4.8,29.98,NW,325,0.0,0.0,87,0.00,,---,0.00,VWS V14.01,2013-03-20 16:28:00,
2013-03-20 08:29:00,7.8,4.7,29.98,NW,325,0.0,0.0,87,0.00,,---,0.00,VWS V14.01,2013-03-20 16:29:00,
2013-03-20 08:31:00,7.8,4.7,29.98,NW,325,0.0,0.0,87,0.00,,---,0.00,VWS V14.01,2013-03-20 16:31:00,
2013-03-20 08:33:00,7.8,4.7,29.98,NW,325,0.0,0.0,87,0.00,,---,0.00,VWS V14.01,2013-03-20 16:33:00,
2013-03-20 08:34:00,7.8,4.7,29.98,NW,325,0.0,0.0,87,0.00,,---,0.00,VWS V14.01,2013-03-20 16:34:00,
2013-03-20 08:36:00,7.5,4.4,29.98,NW,325,0.0,0.0,87,0.00,,---,0.00,VWS V14.01,2013-03-20 16:36:00,
2013-03-20 08:39:00,6.9,3.3,29.98,NW,325,0.0,0.0,85,0.00,,---,0.00,VWS V14.01,2013-03-20 16:39:00,
2013-03-20 08:41:00,6.5,2.7,29.98,NW,325,0.0,0.0,84,0.00,,---,0.00,VWS V14.01,2013-03-20 16:41:00,
2013-03-20 08:44:00,6.0,2.2,29.98,NW,325,0.0,0.0,84,0.00,,---,0.00,VWS V14.01,2013-03-20 16:44:00,
2013-03-20 08:47:00,5.7,1.9,29.98,NW,325,0.0,0.0,84,0.00,,---,0.00,VWS V14.01,2013-03-20 16:47:00,
2013-03-20 08:49:00,5.3,1.5,29.98,NW,325,0.0,0.0,84,0.00,,---,0.00,VWS V14.01,2013-03-20 16:49:00,
2013-03-20 08:50:00,5.3,1.5,29.98,NW,325,0.0,0.0,84,0.00,,---,0.00,VWS V14.01,2013-03-20 16:50:00,
2013-03-20 08:52:00,5.0,1.2,29.97,NW,325,0.0,0.0,84,0.00,,---,0.00,VWS V14.01,2013-03-20 16:52:00,
2013-03-20 08:54:00,4.6,0.8,29.97,NW,325,0.0,0.0,84,0.00,,---,0.00,VWS V14.01,2013-03-20 16:54:00,
2013-03-20 08:55:00,4.6,0.8,29.97,NW,325,0.0,0.0,84,0.00,,---,0.00,VWS V14.01,2013-03-20 16:55:00,
2013-03-20 08:57:00,4.4,0.6,29.97,NW,325,0.0,0.0,84,0.00,,---,0.00,VWS V14.01,2013-03-20 16:57:00,
2013-03-20 08:59:00,4.2,0.7,29.97,NW,325,0.0,0.0,85,0.00,,---,0.00,VWS V14.01,2013-03-20 16:59:00,
2013-03-20 09:00:00,4.1,0.6,29.97,NW,325,0.0,0.0,85,0.00,,---,0.00,VWS V14.01,2013-03-20 17:00:00,
2013-03-20 09:02:00,4.0,0.5,29.97,NW,325,0.0,0.0,85,0.00,,---,0.00,VWS V14.01,2013-03-20 17:02:00,
2013-03-20 09:04:00,4.0,0.8,29.97,NW,325,0.0,0.0,86,0.00,,---,0.00,VWS V14.01,2013-03-20 17:04:00,
2013-03-20 09:05:00,4.0,0.8,29.97,NW,325,0.0,0.0,86,0.00,,---,0.00,VWS V14.01,2013-03-20 17:05:00,
2013-03-20 09:07:00,4.1,1.1,29.97,NW,325,0.0,0.0,87,0.00,,---,0.00,VWS V14.01,2013-03-20 17:07:00,
2013-03-20 09:10:00,4.1,1.3,29.97,NW,325,0.0,0.0,88,0.00,,---,0.00,VWS V14.01,2013-03-20 17:10:00,
2013-03-20 09:11:00,3.8,0.8,29.97,NW,325,0.0,0.0,87,0.00,,---,0.00,VWS V14.01,2013-03-20 17:11:00,
2013-03-20 09:12:00,3.7,0.5,29.98,NW,325,0.0,0.0,86,0.00,,---,0.00,VWS V14.01,2013-03-20 17:12:00,
2013-03-20 09:15:00,5.5,2.7,29.97,NW,306,1.0,2.0,88,0.00,,---,0.00,VWS V14.01,2013-03-20 17:15:00,
2013-03-20 09:17:00,5.7,2.9,29.97,NW,315,2.0,2.0,88,0.00,,---,0.00,VWS V14.01,2013-03-20 17:17:00,
2013-03-20 09:20:00,6.7,4.4,29.97,NW,309,1.0,3.0,90,0.00,,---,0.00,VWS V14.01,2013-03-20 17:20:00,
2013-03-20 09:22:00,6.6,3.6,29.97,North,5,3.0,3.0,87,0.00,,---,0.00,VWS V14.01,2013-03-20 17:22:00,
2013-03-20 09:25:00,5.9,2.6,29.97,NNW,346,2.0,4.0,86,0.00,,---,0.00,VWS V14.01,2013-03-20 17:25:00,
2013-03-20 09:27:00,6.0,3.0,29.97,NNW,341,1.0,3.0,87,0.00,,---,0.00,VWS V14.01,2013-03-20 17:27:00,
2013-03-20 09:30:00,6.1,2.8,29.97,NW,321,2.0,3.0,86,0.00,,---,0.00,VWS V14.01,2013-03-20 17:30:00,
2013-03-20 09:32:00,6.2,2.9,29.97,NNE,14,4.0,4.0,86,0.00,,---,0.00,VWS V14.01,2013-03-20 17:32:00,
2013-03-20 09:36:00,5.3,1.3,29.97,North,355,3.0,4.0,83,0.00,,---,0.00,VWS V14.01,2013-03-20 17:36:00,
2013-03-20 09:37:00,5.2,1.7,29.97,NNW,347,2.0,3.0,85,0.00,,---,0.00,VWS V14.01,2013-03-20 17:37:00,
2013-03-20 09:38:00,5.2,1.7,29.97,NNW,338,3.0,3.0,85,0.00,,---,0.00,VWS V14.01,2013-03-20 17:38:00,
2013-03-20 09:41:00,5.4,2.1,29.97,NNW,333,3.0,3.0,86,0.00,,---,0.00,VWS V14.01,2013-03-20 17:41:00,
2013-03-20 09:42:00,5.5,2.0,29.97,NW,315,3.0,3.0,85,0.00,,---,0.00,VWS V14.01,2013-03-20 17:42:00,
2013-03-20 09:43:00,5.5,2.0,29.97,NW,317,2.0,3.0,85,0.00,,---,0.00,VWS V14.01,2013-03-20 17:43:00,
2013-03-20 09:46:00,5.9,2.6,29.97,West,277,2.0,3.0,86,0.00,,---,0.00,VWS V14.01,2013-03-20 17:46:00,
2013-03-20 09:47:00,6.3,3.3,29.97,WNW,286,1.0,2.0,87,0.00,,---,0.00,VWS V14.01,2013-03-20 17:47:00,
2013-03-20 09:48:00,6.4,3.4,29.97,WNW,296,1.0,2.0,87,0.00,,---,0.00,VWS V14.01,2013-03-20 17:48:00,
2013-03-20 09:51:00,7.6,4.6,29.97,NW,323,2.0,3.0,87,0.00,,---,0.00,VWS V14.01,2013-03-20 17:51:00,
2013-03-20 09:53:00,8.0,4.7,29.97,North,355,2.0,3.0,86,0.00,,---,0.00,VWS V14.01,2013-03-20 17:53:00,
2013-03-20 09:56:00,7.8,3.5,29.97,NW,322,2.0,3.0,82,0.00,,---,0.00,VWS V14.01,2013-03-20 17:56:00,
2013-03-20 09:58:00,7.9,3.8,29.97,NW,309,2.0,3.0,83,0.00,,---,0.00,VWS V14.01,2013-03-20 17:58:00,
2013-03-20 09:59:00,8.0,3.9,29.97,NW,311,2.0,3.0,83,0.00,,---,0.00,VWS V14.01,2013-03-20 17:59:00,
2013-03-20 10:02:00,8.1,4.3,29.97,WNW,291,2.0,2.0,84,0.00,,---,0.00,VWS V14.01,2013-03-20 18:02:00,
2013-03-20 10:03:00,5.3,2.8,29.97,NW,325,0.0,2.0,89,0.00,,---,0.00,VWS V14.01,2013-03-20 18:03:00,
2013-03-20 10:04:00,5.3,2.8,29.97,NW,325,0.0,2.0,89,0.00,,---,0.00,VWS V14.01,2013-03-20 18:04:00,
2013-03-20 10:07:00,5.4,2.9,29.97,NW,325,0.0,0.0,89,0.00,,---,0.00,VWS V14.01,2013-03-20 18:07:00,
2013-03-20 10:08:00,5.5,2.7,29.97,NW,325,0.0,0.0,88,0.00,,---,0.00,VWS V14.01,2013-03-20 18:08:00,
2013-03-20 10:09:00,5.5,2.7,29.97,NW,325,0.0,0.0,88,0.00,,---,0.00,VWS V14.01,2013-03-20 18:09:00,
2013-03-20 10:12:00,5.5,2.5,29.97,NW,325,0.0,0.0,87,0.00,,---,0.00,VWS V14.01,2013-03-20 18:12:00,
2013-03-20 10:13:00,5.5,2.5,29.97,NW,325,0.0,0.0,87,0.00,,---,0.00,VWS V14.01,2013-03-20 18:13:00,
2013-03-20 10:14:00,5.5,2.5,29.97,NW,325,0.0,0.0,87,0.00,,---,0.00,VWS V14.01,2013-03-20 18:14:00,
2013-03-20 10:17:00,5.7,2.9,29.97,NW,325,0.0,0.0,88,0.00,,---,0.00,VWS V14.01,2013-03-20 18:17:00,
2013-03-20 10:19:00,5.9,3.1,29.97,NW,325,0.0,0.0,88,0.00,,---,0.00,VWS V14.01,2013-03-20 18:19:00,
2013-03-20 10:20:00,6.0,3.2,29.97,NW,325,0.0,0.0,88,0.00,,---,0.00,VWS V14.01,2013-03-20 18:20:00,
2013-03-20 10:23:00,6.5,3.7,29.97,NW,325,0.0,0.0,88,0.00,,---,0.00,VWS V14.01,2013-03-20 18:23:00,
2013-03-20 10:24:00,6.7,3.9,29.97,NW,325,0.0,0.0,88,0.00,,---,0.00,VWS V14.01,2013-03-20 18:24:00,
2013-03-20 10:25:00,6.8,4.0,29.97,NW,325,0.0,0.0,88,0.00,,---,0.00,VWS V14.01,2013-03-20 18:25:00,
2013-03-20 10:28:00,7.1,4.1,29.97,NW,325,0.0,0.0,87,0.00,,---,0.00,VWS V14.01,2013-03-20 18:28:00,
2013-03-20 10:29:00,7.3,4.5,29.97,NW,325,0.0,0.0,88,0.00,,---,0.00,VWS V14.01,2013-03-20 18:29:00,
2013-03-20 10:30:00,7.4,4.6,29.97,NW,325,0.0,0.0,88,0.00,,---,0.00,VWS V14.01,2013-03-20 18:30:00,
2013-03-20 10:33:00,8.0,4.9,29.97,NW,325,0.0,0.0,87,0.00,,---,0.00,VWS V14.01,2013-03-20 18:33:00,
2013-03-20 10:35:00,8.3,5.2,29.97,NW,325,0.0,0.0,87,0.00,,---,0.00,VWS V14.01,2013-03-20 18:35:00,
2013-03-20 10:38:00,8.8,5.2,29.97,NW,325,1.0,1.0,85,0.00,,---,0.00,VWS V14.01,2013-03-20 18:38:00,
2013-03-20 10:40:00,9.1,5.5,29.97,NW,325,2.0,3.0,85,0.00,,---,0.00,VWS V14.01,2013-03-20 18:40:00,
2013-03-20 10:43:00,9.8,5.9,29.97,NW,325,0.0,0.0,84,0.00,,---,0.00,VWS V14.01,2013-03-20 18:43:00,
2013-03-20 10:45:00,10.1,6.2,29.97,NW,325,0.0,0.0,84,0.00,,---,0.00,VWS V14.01,2013-03-20 18:45:00,
2013-03-20 10:48:00,10.8,6.7,29.97,NW,325,0.0,0.0,83,0.00,,---,0.00,VWS V14.01,2013-03-20 18:48:00,
2013-03-20 10:50:00,11.1,7.0,29.97,NW,325,0.0,0.0,83,0.00,,---,0.00,VWS V14.01,2013-03-20 18:50:00,
2013-03-20 10:53:00,11.6,6.9,29.97,NW,325,0.0,0.0,81,0.00,,---,0.00,VWS V14.01,2013-03-20 18:53:00,
2013-03-20 10:55:00,11.8,7.1,29.97,NW,325,0.0,0.0,81,0.00,,---,0.00,VWS V14.01,2013-03-20 18:55:00,
2013-03-20 10:59:00,12.4,7.1,29.97,NW,325,0.0,0.0,79,0.00,,---,0.00,VWS V14.01,2013-03-20 18:59:00,
2013-03-20 11:00:00,12.5,7.2,29.97,NW,325,0.0,0.0,79,0.00,,---,0.00,VWS V14.01,2013-03-20 19:00:00,
2013-03-20 11:01:00,12.6,7.3,29.97,NW,325,0.0,0.0,79,0.00,,---,0.00,VWS V14.01,2013-03-20 19:01:00,
2013-03-20 11:04:00,13.0,7.2,29.97,NW,325,2.0,2.0,77,0.00,,---,0.00,VWS V14.01,2013-03-20 19:04:00,
2013-03-20 11:05:00,13.0,7.2,29.97,NW,325,1.0,3.0,77,0.00,,---,0.00,VWS V14.01,2013-03-20 19:05:00,
2013-03-20 11:06:00,13.1,7.3,29.97,NW,325,0.0,3.0,77,0.00,,---,0.00,VWS V14.01,2013-03-20 19:06:00,
2013-03-20 11:09:00,13.6,7.5,29.97,NW,325,1.0,3.0,76,0.00,,---,0.00,VWS V14.01,2013-03-20 19:09:00,
2013-03-20 11:10:00,13.8,7.7,29.97,NW,325,2.0,3.0,76,0.00,,---,0.00,VWS V14.01,2013-03-20 19:10:00,
2013-03-20 11:11:00,13.8,7.7,29.97,NW,325,3.0,3.0,76,0.00,,---,0.00,VWS V14.01,2013-03-20 19:11:00,
2013-03-20 11:14:00,13.9,7.2,29.97,NW,325,4.0,5.0,74,0.00,,---,0.00,VWS V14.01,2013-03-20 19:14:00,
2013-03-20 11:15:00,13.9,7.2,29.97,NW,325,4.0,5.0,74,0.00,,---,0.00,VWS V14.01,2013-03-20 19:15:00,
2013-03-20 11:16:00,13.9,7.2,29.97,NW,325,4.0,5.0,74,0.00,,---,0.00,VWS V14.01,2013-03-20 19:16:00,
2013-03-20 11:20:00,13.6,6.6,29.97,NW,325,4.0,5.0,73,0.00,,---,0.00,VWS V14.01,2013-03-20 19:20:00,
2013-03-20 11:21:00,13.6,6.6,29.97,NW,325,2.0,5.0,73,0.00,,---,0.00,VWS V14.01,2013-03-20 19:21:00,
2013-03-20 11:25:00,13.5,6.5,29.97,NW,325,0.0,2.0,73,0.00,,---,0.00,VWS V14.01,2013-03-20 19:25:00,
2013-03-20 11:26:00,13.5,6.5,29.97,NW,325,0.0,2.0,73,0.00,,---,0.00,VWS V14.01,2013-03-20 19:26:00,
2013-03-20 11:27:00,13.6,6.6,29.97,NW,325,0.0,0.0,73,0.00,,---,0.00,VWS V14.01,2013-03-20 19:27:00,
2013-03-20 11:31:00,13.9,6.9,29.96,NW,325,0.0,0.0,73,0.00,,---,0.00,VWS V14.01,2013-03-20 19:31:00,
2013-03-20 11:32:00,14.1,7.1,29.96,NW,325,0.0,0.0,73,0.00,,---,0.00,VWS V14.01,2013-03-20 19:32:00,
2013-03-20 11:36:00,14.5,7.1,29.97,NW,325,0.0,0.0,72,0.00,,---,0.00,VWS V14.01,2013-03-20 19:36:00,
2013-03-20 11:37:00,14.5,7.1,29.97,NW,325,0.0,0.0,72,0.00,,---,0.00,VWS V14.01,2013-03-20 19:37:00,
2013-03-20 11:41:00,15.2,7.5,29.97,NW,325,0.0,0.0,71,0.00,,---,0.00,VWS V14.01,2013-03-20 19:41:00,
2013-03-20 11:42:00,15.3,7.6,29.97,NW,325,0.0,0.0,71,0.00,,---,0.00,VWS V14.01,2013-03-20 19:42:00,
2013-03-20 11:47:00,15.5,6.8,29.97,NW,325,0.0,1.0,68,0.00,,---,0.00,VWS V14.01,2013-03-20 19:47:00,
2013-03-20 11:48:00,15.5,6.8,29.97,NW,325,0.0,3.0,68,0.00,,---,0.00,VWS V14.01,2013-03-20 19:48:00,
2013-03-20 11:52:00,15.5,7.2,29.97,NW,325,0.0,0.0,69,0.00,,---,0.00,VWS V14.01,2013-03-20 19:52:00,
2013-03-20 11:53:00,15.5,7.2,29.97,NW,325,0.0,0.0,69,0.00,,---,0.00,VWS V14.01,2013-03-20 19:53:00,
2013-03-20 11:57:00,16.1,7.4,29.96,NW,323,0.0,0.0,68,0.00,,---,0.00,VWS V14.01,2013-03-20 19:57:00,
2013-03-20 11:58:00,16.2,7.5,29.96,NW,323,0.0,0.0,68,0.00,,---,0.00,VWS V14.01,2013-03-20 19:58:00,
2013-03-20 12:03:00,16.3,6.9,29.97,NW,323,0.0,0.0,66,0.00,,---,0.00,VWS V14.01,2013-03-20 20:03:00,
2013-03-20 12:08:00,16.4,7.0,29.97,NW,323,0.0,1.0,66,0.00,,---,0.00,VWS V14.01,2013-03-20 20:08:00,
2013-03-20 12:09:00,16.4,7.0,29.97,NW,323,1.0,2.0,66,0.00,,---,0.00,VWS V14.01,2013-03-20 20:09:00,
2013-03-20 12:13:00,16.5,7.1,29.97,NW,322,3.0,4.0,66,0.00,,---,0.00,VWS V14.01,2013-03-20 20:13:00,
2013-03-20 12:14:00,16.5,7.1,29.96,NW,322,0.0,4.0,66,0.00,,---,0.00,VWS V14.01,2013-03-20 20:14:00,
2013-03-20 12:18:00,16.5,6.8,29.97,NW,321,3.0,4.0,65,0.00,,---,0.00,VWS V14.01,2013-03-20 20:18:00,
2013-03-20 12:19:00,16.5,6.8,29.97,NW,321,3.0,4.0,65,0.00,,---,0.00,VWS V14.01,2013-03-20 20:19:00,
2013-03-20 12:23:00,16.4,7.0,29.97,NW,309,2.0,4.0,66,0.00,,---,0.00,VWS V14.01,2013-03-20 20:23:00,
2013-03-20 12:24:00,16.4,7.0,29.97,NW,309,2.0,4.0,66,0.00,,---,0.00,VWS V14.01,2013-03-20 20:24:00,
2013-03-20 12:28:00,16.3,6.6,29.97,NW,309,3.0,4.0,65,0.00,,---,0.00,VWS V14.01,2013-03-20 20:28:00,
2013-03-20 12:29:00,16.3,6.6,29.97,NW,309,2.0,5.0,65,0.00,,---,0.00,VWS V14.01,2013-03-20 20:29:00,
2013-03-20 12:34:00,16.0,6.7,29.97,NW,316,3.0,7.0,66,0.00,,---,0.00,VWS V14.01,2013-03-20 20:34:00,
2013-03-20 12:39:00,15.6,6.6,29.97,NW,325,4.0,8.0,67,0.00,,---,0.00,VWS V14.01,2013-03-20 20:39:00,
2013-03-20 12:44:00,16.0,7.0,29.97,NW,325,1.0,5.0,67,0.00,,---,0.00,VWS V14.01,2013-03-20 20:44:00,
2013-03-20 12:45:00,16.0,7.0,29.97,NW,325,5.0,6.0,67,0.00,,---,0.00,VWS V14.01,2013-03-20 20:45:00,
2013-03-20 12:49:00,16.1,6.8,29.97,NW,325,2.0,3.0,66,0.00,,---,0.00,VWS V14.01,2013-03-20 20:49:00,
2013-03-20 12:50:00,16.1,6.8,29.97,NW,323,3.0,5.0,66,0.00,,---,0.00,VWS V14.01,2013-03-20 20:50:00,
2013-03-20 12:54:00,16.5,7.1,29.97,NW,323,3.0,4.0,66,0.00,,---,0.00,VWS V14.01,2013-03-20 20:54:00,
2013-03-20 12:55:00,16.6,7.2,29.97,NW,323,2.0,4.0,66,0.00,,---,0.00,VWS V14.01,2013-03-20 20:55:00,
2013-03-20 12:59:00,17.0,7.3,29.97,West,276,6.0,6.0,65,0.00,,---,0.00,VWS V14.01,2013-03-20 20:59:00,
2013-03-20 13:00:00,17.0,7.3,29.97,West,275,0.0,6.0,65,0.00,,---,0.00,VWS V14.01,2013-03-20 21:00:00,
2013-03-20 13:01:00,17.1,7.4,29.97,West,275,3.0,6.0,65,0.00,,---,0.00,VWS V14.01,2013-03-20 21:01:00,
2013-03-20 13:04:00,17.2,7.1,29.97,WNW,288,4.0,7.0,64,0.00,,---,0.00,VWS V14.01,2013-03-20 21:04:00,
2013-03-20 13:05:00,17.1,7.0,29.97,NW,310,5.0,8.0,64,0.00,,---,0.00,VWS V14.01,2013-03-20 21:05:00,
2013-03-20 13:06:00,17.0,6.9,29.97,NW,317,7.0,8.0,64,0.00,,---,0.00,VWS V14.01,2013-03-20 21:06:00,
2013-03-20 13:09:00,16.8,6.8,29.97,WNW,298,4.0,9.0,64,0.00,,---,0.00,VWS V14.01,2013-03-20 21:09:00,
2013-03-20 13:10:00,16.7,6.7,29.97,NW,317,5.0,9.0,64,0.00,,---,0.00,VWS V14.01,2013-03-20 21:10:00,
2013-03-20 13:11:00,16.7,6.7,29.97,NW,309,4.0,9.0,64,0.00,,---,0.00,VWS V14.01,2013-03-20 21:11:00,
2013-03-20 13:15:00,16.5,6.5,29.97,West,267,4.0,9.0,64,0.00,,---,0.00,VWS V14.01,2013-03-20 21:15:00,
2013-03-20 13:16:00,16.4,6.4,29.97,NW,306,7.0,9.0,64,0.00,,---,0.00,VWS V14.01,2013-03-20 21:16:00,
2013-03-20 13:20:00,16.1,6.1,29.96,WNW,299,5.0,9.0,64,0.00,,---,0.00,VWS V14.01,2013-03-20 21:20:00,
2013-03-20 13:21:00,16.1,6.1,29.96,WNW,295,7.0,9.0,64,0.00,,---,0.00,VWS V14.01,2013-03-20 21:21:00,
2013-03-20 13:22:00,16.1,6.1,29.96,WNW,289,4.0,6.0,64,0.00,,---,0.00,VWS V14.01,2013-03-20 21:22:00,
2013-03-20 13:25:00,16.1,6.1,29.96,WNW,298,6.0,9.0,64,0.00,,---,0.00,VWS V14.01,2013-03-20 21:25:00,
2013-03-20 13:26:00,16.1,6.1,29.97,NW,311,5.0,13.0,64,0.00,,---,0.00,VWS V14.01,2013-03-20 21:26:00,
2013-03-20 13:27:00,16.1,6.1,29.97,WNW,291,6.0,11.0,64,0.00,,---,0.00,VWS V14.01,2013-03-20 21:27:00,
2013-03-20 13:30:00,16.1,6.1,29.97,WNW,295,6.0,11.0,64,0.00,,---,0.00,VWS V14.01,2013-03-20 21:30:00,
2013-03-20 13:32:00,16.2,6.2,29.97,WNW,298,1.0,2.0,64,0.00,,---,0.00,VWS V14.01,2013-03-20 21:32:00,
2013-03-20 13:36:00,16.5,6.5,29.97,WNW,292,5.0,7.0,64,0.00,,---,0.00,VWS V14.01,2013-03-20 21:36:00,
2013-03-20 13:37:00,16.6,6.6,29.97,NW,306,8.0,8.0,64,0.00,,---,0.00,VWS V14.01,2013-03-20 21:37:00,
2013-03-20 13:41:00,16.4,6.4,29.97,WNW,296,2.0,9.0,64,0.00,,---,0.00,VWS V14.01,2013-03-20 21:41:00,
2013-03-20 13:42:00,16.3,6.3,29.96,NW,305,2.0,5.0,64,0.00,,---,0.00,VWS V14.01,2013-03-20 21:42:00,
2013-03-20 13:43:00,16.4,6.7,29.97,WNW,303,0.0,6.0,65,0.00,,---,0.00,VWS V14.01,2013-03-20 21:43:00,
2013-03-20 13:46:00,16.7,7.0,29.96,NW,309,5.0,6.0,65,0.00,,---,0.00,VWS V14.01,2013-03-20 21:46:00,
2013-03-20 13:47:00,16.7,6.7,29.96,NW,313,4.0,6.0,64,0.00,,---,0.00,VWS V14.01,2013-03-20 21:47:00,
2013-03-20 13:48:00,16.7,6.7,29.97,NW,315,3.0,6.0,64,0.00,,---,0.00,VWS V14.01,2013-03-20 21:48:00,
2013-03-20 13:51:00,16.7,6.7,29.97,WNW,303,4.0,6.0,64,0.00,,---,0.00,VWS V14.01,2013-03-20 21:51:00,
2013-03-20 13:52:00,16.8,6.8,29.97,WNW,296,7.0,8.0,64,0.00,,---,0.00,VWS V14.01,2013-03-20 21:52:00,
2013-03-20 13:54:00,16.8,6.8,29.97,WNW,293,5.0,8.0,64,0.00,,---,0.00,VWS V14.01,2013-03-20 21:54:00,
2013-03-20 13:57:00,16.8,6.8,29.97,NW,311,7.0,7.0,64,0.00,,---,0.00,VWS V14.01,2013-03-20 21:57:00,
2013-03-20 13:59:00,16.6,6.2,29.97,WNW,294,7.0,8.0,63,0.00,,---,0.00,VWS V14.01,2013-03-20 21:59:00,
2013-03-20 14:02:00,16.5,6.5,29.97,WNW,287,4.0,7.0,64,0.00,,---,0.00,VWS V14.01,2013-03-20 22:02:00,
2013-03-20 14:04:00,16.4,6.4,29.97,WNW,302,3.0,8.0,64,0.00,,---,0.00,VWS V14.01,2013-03-20 22:04:00,
2013-03-20 14:07:00,16.5,6.1,29.97,West,281,5.0,6.0,63,0.00,,---,0.00,VWS V14.01,2013-03-20 22:07:00,
2013-03-20 14:08:00,16.5,6.1,29.97,WNW,300,6.0,8.0,63,0.00,,---,0.00,VWS V14.01,2013-03-20 22:08:00,
2013-03-20 14:09:00,16.6,5.9,29.97,WNW,294,3.0,8.0,62,0.00,,---,0.00,VWS V14.01,2013-03-20 22:09:00,
2013-03-20 14:12:00,16.7,6.0,29.97,WNW,300,7.0,8.0,62,0.00,,---,0.00,VWS V14.01,2013-03-20 22:12:00,
2013-03-20 14:13:00,16.7,6.0,29.97,WNW,288,4.0,8.0,62,0.00,,---,0.00,VWS V14.01,2013-03-20 22:13:00,
2013-03-20 14:14:00,16.7,6.3,29.97,NW,315,3.0,8.0,63,0.00,,---,0.00,VWS V14.01,2013-03-20 22:14:00,
2013-03-20 14:18:00,16.9,6.5,29.97,NW,313,0.0,4.0,63,0.00,,---,0.00,VWS V14.01,2013-03-20 22:18:00,
2013-03-20 14:20:00,17.2,7.1,29.97,NW,310,3.0,5.0,64,0.00,,---,0.00,VWS V14.01,2013-03-20 22:20:00,
2013-03-20 14:23:00,17.4,7.0,29.97,WNW,294,5.0,7.0,63,0.00,,---,0.00,VWS V14.01,2013-03-20 22:23:00,
2013-03-20 14:25:00,17.4,6.3,29.97,NW,308,4.0,7.0,61,0.00,,---,0.00,VWS V14.01,2013-03-20 22:25:00,
2013-03-20 14:28:00,17.4,5.9,29.97,WNW,288,3.0,7.0,60,0.00,,---,0.00,VWS V14.01,2013-03-20 22:28:00,
2013-03-20 14:30:00,17.5,6.4,29.97,West,265,6.0,8.0,61,0.00,,---,0.00,VWS V14.01,2013-03-20 22:30:00,
2013-03-20 14:33:00,17.6,6.1,29.97,WNW,292,4.0,6.0,60,0.00,,---,0.00,VWS V14.01,2013-03-20 22:33:00,
2013-03-20 14:35:00,17.7,6.2,29.97,WNW,298,1.0,7.0,60,0.00,,---,0.00,VWS V14.01,2013-03-20 22:35:00,
2013-03-20 14:38:00,17.9,6.4,29.97,West,280,4.0,5.0,60,0.00,,---,0.00,VWS V14.01,2013-03-20 22:38:00,
2013-03-20 14:39:00,18.0,6.5,29.97,West,270,3.0,5.0,60,0.00,,---,0.00,VWS V14.01,2013-03-20 22:39:00,
2013-03-20 14:41:00,18.1,6.2,29.97,WNW,296,0.0,5.0,59,0.00,,---,0.00,VWS V14.01,2013-03-20 22:41:00,
2013-03-20 14:43:00,18.1,6.6,29.97,West,265,1.0,7.0,60,0.00,,---,0.00,VWS V14.01,2013-03-20 22:43:00,
2013-03-20 14:44:00,18.1,6.2,29.97,West,271,4.0,7.0,59,0.00,,---,0.00,VWS V14.01,2013-03-20 22:44:00,
2013-03-20 14:46:00,18.1,6.2,29.97,WNW,290,0.0,7.0,59,0.00,,---,0.00,VWS V14.01,2013-03-20 22:46:00,
2013-03-20 14:48:00,18.0,6.1,29.97,West,275,3.0,7.0,59,0.00,,---,0.00,VWS V14.01,2013-03-20 22:48:00,
2013-03-20 14:49:00,18.0,6.1,29.97,West,275,5.0,7.0,59,0.00,,---,0.00,VWS V14.01,2013-03-20 22:49:00,
2013-03-20 14:51:00,17.9,6.0,29.97,West,281,1.0,7.0,59,0.00,,---,0.00,VWS V14.01,2013-03-20 22:51:00,
2013-03-20 14:53:00,18.1,6.6,29.97,West,281,2.0,3.0,60,0.00,,---,0.00,VWS V14.01,2013-03-20 22:53:00,
2013-03-20 14:54:00,18.2,6.7,29.97,West,281,0.0,3.0,60,0.00,,---,0.00,VWS V14.01,2013-03-20 22:54:00,
2013-03-20 14:56:00,18.4,6.5,29.97,West,275,2.0,3.0,59,0.00,,---,0.00,VWS V14.01,2013-03-20 22:56:00,
2013-03-20 14:58:00,18.4,6.5,29.97,West,261,2.0,6.0,59,0.00,,---,0.00,VWS V14.01,2013-03-20 22:58:00,
2013-03-20 14:59:00,18.3,6.4,29.97,West,261,2.0,6.0,59,0.00,,---,0.00,VWS V14.01,2013-03-20 22:59:00,
2013-03-20 15:01:00,18.2,5.9,29.97,WSW,245,4.0,6.0,58,0.00,,---,0.00,VWS V14.01,2013-03-20 23:01:00,
2013-03-20 15:03:00,17.9,6.0,29.97,West,267,4.0,6.0,59,0.00,,---,0.00,VWS V14.01,2013-03-20 23:03:00,
2013-03-20 15:04:00,17.8,5.9,29.97,WNW,288,6.0,7.0,59,0.00,,---,0.00,VWS V14.01,2013-03-20 23:04:00,
2013-03-20 15:07:00,17.4,5.2,29.97,West,268,3.0,3.0,58,0.00,,---,0.00,VWS V14.01,2013-03-20 23:07:00,
2013-03-20 15:08:00,17.4,5.5,29.97,West,264,2.0,4.0,59,0.00,,---,0.00,VWS V14.01,2013-03-20 23:08:00,
2013-03-20 15:09:00,17.4,5.5,29.97,West,274,5.0,5.0,59,0.00,,---,0.00,VWS V14.01,2013-03-20 23:09:00,
2013-03-20 15:10:00,17.4,5.5,29.97,West,274,4.0,5.0,59,0.00,,---,0.00,VWS V14.01,2013-03-20 23:10:00,
2013-03-20 15:12:00,17.4,5.5,29.97,West,271,3.0,5.0,59,0.00,,---,0.00,VWS V14.01,2013-03-20 23:12:00,
2013-03-20 15:13:00,17.5,5.6,29.97,West,277,1.0,5.0,59,0.00,,---,0.00,VWS V14.01,2013-03-20 23:13:00,
2013-03-20 15:15:00,17.5,5.6,29.97,WNW,283,2.0,6.0,59,0.00,,---,0.00,VWS V14.01,2013-03-20 23:15:00,
2013-03-20 15:17:00,17.6,5.7,29.97,WNW,296,5.0,5.0,59,0.00,,---,0.00,VWS V14.01,2013-03-20 23:17:00,
2013-03-20 15:19:00,17.6,5.7,29.97,NW,315,2.0,6.0,59,0.00,,---,0.00,VWS V14.01,2013-03-20 23:19:00,
2013-03-20 15:20:00,17.5,5.6,29.97,WNW,296,0.0,6.0,59,0.00,,---,0.00,VWS V14.01,2013-03-20 23:20:00,
2013-03-20 15:23:00,17.6,5.7,29.97,West,266,3.0,4.0,59,0.00,,---,0.00,VWS V14.01,2013-03-20 23:23:00,
2013-03-20 15:24:00,17.6,5.3,29.97,West,265,2.0,5.0,58,0.00,,---,0.00,VWS V14.01,2013-03-20 23:24:00,
2013-03-20 15:25:00,17.7,5.4,29.97,WNW,297,1.0,5.0,58,0.00,,---,0.00,VWS V14.01,2013-03-20 23:25:00,
2013-03-20 15:28:00,17.8,5.9,29.97,WNW,297,2.0,2.0,59,0.00,,---,0.00,VWS V14.01,2013-03-20 23:28:00,
2013-03-20 15:29:00,17.8,5.9,29.97,WNW,297,2.0,2.0,59,0.00,,---,0.00,VWS V14.01,2013-03-20 23:29:00,
2013-03-20 15:30:00,15.9,3.8,29.97,NNW,329,3.0,6.0,58,0.00,,---,0.00,VWS V14.01,2013-03-20 23:30:00,
2013-03-20 15:33:00,15.7,3.9,29.97,NNW,329,6.0,8.0,59,0.00,,---,0.00,VWS V14.01,2013-03-20 23:33:00,
2013-03-20 15:34:00,15.6,3.8,29.97,NW,320,6.0,8.0,59,0.00,,---,0.00,VWS V14.01,2013-03-20 23:34:00,
2013-03-20 15:35:00,15.6,3.8,29.97,NNW,339,7.0,8.0,59,0.00,,---,0.00,VWS V14.01,2013-03-20 23:35:00,
2013-03-20 15:38:00,15.6,3.5,29.98,NNW,331,5.0,8.0,58,0.00,,---,0.00,VWS V14.01,2013-03-20 23:38:00,
2013-03-20 15:39:00,15.7,3.9,29.98,NNW,331,4.0,8.0,59,0.00,,---,0.00,VWS V14.01,2013-03-20 23:39:00,
2013-03-20 15:40:00,15.7,3.9,29.97,NNW,329,4.0,8.0,59,0.00,,---,0.00,VWS V14.01,2013-03-20 23:40:00,
2013-03-20 15:44:00,15.7,3.6,29.97,NNW,333,5.0,7.0,58,0.00,,---,0.00,VWS V14.01,2013-03-20 23:44:00,
2013-03-20 15:45:00,15.7,3.6,29.97,NW,322,5.0,8.0,58,0.00,,---,0.00,VWS V14.01,2013-03-20 23:45:00,
2013-03-20 15:46:00,15.7,3.6,29.97,NNW,337,3.0,8.0,58,0.00,,---,0.00,VWS V14.01,2013-03-20 23:46:00,
2013-03-20 15:49:00,15.6,3.5,29.97,NW,310,5.0,7.0,58,0.00,,---,0.00,VWS V14.01,2013-03-20 23:49:00,
2013-03-20 15:50:00,15.4,3.3,29.98,WNW,300,7.0,10.0,58,0.00,,---,0.00,VWS V14.01,2013-03-20 23:50:00,
2013-03-20 15:51:00,15.4,3.3,29.98,NW,311,7.0,10.0,58,0.00,,---,0.00,VWS V14.01,2013-03-20 23:51:00,
2013-03-20 15:54:00,15.1,3.4,29.97,NW,317,8.0,9.0,59,0.00,,---,0.00,VWS V14.01,2013-03-20 23:54:00,
2013-03-20 15:55:00,15.0,3.6,29.97,NW,311,5.0,9.0,60,0.00,,---,0.00,VWS V14.01,2013-03-20 23:55:00,
2013-03-20 15:56:00,14.8,3.4,29.97,North,355,4.0,9.0,60,0.00,,---,0.00,VWS V14.01,2013-03-20 23:56:00,
2013-03-20 15:59:00,14.5,3.2,29.97,NW,304,7.0,10.0,60,0.00,,---,0.00,VWS V14.01,2013-03-20 23:59:00,
2013-03-20 16:00:00,14.5,3.5,29.97,NW,307,7.0,10.0,61,0.00,,---,0.00,VWS V14.01,2013-03-21 00:00:00,
2013-03-20 16:01:00,14.5,3.5,29.97,WNW,296,5.0,10.0,61,0.00,,---,0.00,VWS V14.01,2013-03-21 00:01:00,
2013-03-20 16:04:00,14.4,3.4,29.97,WNW,295,5.0,8.0,61,0.00,,---,0.00,VWS V14.01,2013-03-21 00:04:00,
2013-03-20 16:05:00,14.5,3.5,29.97,NW,308,4.0,8.0,61,0.00,,---,0.00,VWS V14.01,2013-03-21 00:05:00,
2013-03-20 16:06:00,14.6,3.6,29.97,WNW,301,4.0,8.0,61,0.00,,---,0.00,VWS V14.01,2013-03-21 00:06:00,
2013-03-20 16:09:00,14.8,3.8,29.97,NW,312,6.0,7.0,61,0.00,,---,0.00,VWS V14.01,2013-03-21 00:09:00,
2013-03-20 16:10:00,14.9,3.5,29.97,NW,326,4.0,7.0,60,0.00,,---,0.00,VWS V14.01,2013-03-21 00:10:00,
2013-03-20 16:12:00,15.0,4.0,29.97,NW,306,7.0,7.0,61,0.00,,---,0.00,VWS V14.01,2013-03-21 00:12:00,
2013-03-20 16:14:00,15.1,4.1,29.97,NW,309,5.0,7.0,61,0.00,,---,0.00,VWS V14.01,2013-03-21 00:14:00,
2013-03-20 16:15:00,15.2,4.2,29.97,WNW,290,4.0,8.0,61,0.00,,---,0.00,VWS V14.01,2013-03-21 00:15:00,
2013-03-20 16:18:00,15.2,4.2,29.97,NW,306,4.0,7.0,61,0.00,,---,0.00,VWS V14.01,2013-03-21 00:18:00,
2013-03-20 16:19:00,15.3,4.3,29.97,WNW,299,6.0,8.0,61,0.00,,---,0.00,VWS V14.01,2013-03-21 00:19:00,
2013-03-20 16:20:00,15.2,3.8,29.97,WNW,289,7.0,9.0,60,0.00,,---,0.00,VWS V14.01,2013-03-21 00:20:00,
2013-03-20 16:23:00,15.2,3.8,29.97,NW,311,7.0,7.0,60,0.00,,---,0.00,VWS V14.01,2013-03-21 00:23:00,
2013-03-20 16:24:00,15.3,3.9,29.97,WNW,293,5.0,7.0,60,0.00,,---,0.00,VWS V14.01,2013-03-21 00:24:00,
2013-03-20 16:25:00,15.4,4.0,29.97,WNW,292,6.0,8.0,60,0.00,,---,0.00,VWS V14.01,2013-03-21 00:25:00,
2013-03-20 16:28:00,15.4,3.7,29.97,WNW,293,8.0,8.0,59,0.00,,---,0.00,VWS V14.01,2013-03-21 00:28:00,
2013-03-20 16:29:00,15.3,3.9,29.97,West,273,5.0,8.0,60,0.00,,---,0.00,VWS V14.01,2013-03-21 00:29:00,
2013-03-20 16:30:00,15.3,3.9,29.97,NW,310,7.0,8.0,60,0.00,,---,0.00,VWS V14.01,2013-03-21 00:30:00,
2013-03-20 16:31:00,15.3,3.9,29.97,WNW,302,4.0,8.0,60,0.00,,---,0.00,VWS V14.01,2013-03-21 00:31:00,
2013-03-20 16:33:00,15.3,4.3,29.97,NW,304,6.0,7.0,61,0.00,,---,0.00,VWS V14.01,2013-03-21 00:33:00,
2013-03-20 16:34:00,15.3,3.9,29.97,WNW,300,4.0,7.0,60,0.00,,---,0.00,VWS V14.01,2013-03-21 00:34:00,
2013-03-20 16:35:00,15.3,4.3,29.97,West,281,5.0,7.0,61,0.00,,---,0.00,VWS V14.01,2013-03-21 00:35:00,
2013-03-20 16:36:00,15.4,4.4,29.97,NW,310,2.0,7.0,61,0.00,,---,0.00,VWS V14.01,2013-03-21 00:36:00,
2013-03-20 16:38:00,15.4,4.4,29.97,WNW,296,4.0,7.0,61,0.00,,---,0.00,VWS V14.01,2013-03-21 00:38:00,
2013-03-20 16:39:00,15.4,4.0,29.97,West,273,5.0,7.0,60,0.00,,---,0.00,VWS V14.01,2013-03-21 00:39:00,
2013-03-20 16:40:00,15.4,4.0,29.97,WNW,288,4.0,7.0,60,0.00,,---,0.00,VWS V14.01,2013-03-21 00:40:00,
2013-03-20 16:41:00,15.4,4.0,29.97,WNW,288,4.0,4.0,60,0.00,,---,0.00,VWS V14.01,2013-03-21 00:41:00,
2013-03-20 16:43:00,15.4,4.0,29.97,NW,313,3.0,6.0,60,0.00,,---,0.00,VWS V14.01,2013-03-21 00:43:00,
2013-03-20 16:45:00,15.4,4.0,29.97,NW,318,4.0,6.0,60,0.00,,---,0.00,VWS V14.01,2013-03-21 00:45:00,
2013-03-20 16:47:00,15.5,4.1,29.97,NW,305,5.0,6.0,60,0.00,,---,0.00,VWS V14.01,2013-03-21 00:47:00,
2013-03-20 16:48:00,15.5,4.1,29.97,NW,305,4.0,7.0,60,0.00,,---,0.00,VWS V14.01,2013-03-21 00:48:00,
2013-03-20 16:50:00,15.5,4.1,29.97,NW,319,5.0,7.0,60,0.00,,---,0.00,VWS V14.01,2013-03-21 00:50:00,
2013-03-20 16:52:00,15.5,4.1,29.97,NW,316,4.0,6.0,60,0.00,,---,0.00,VWS V14.01,2013-03-21 00:52:00,
2013-03-20 16:54:00,15.5,4.1,29.97,NNW,338,3.0,6.0,60,0.00,,---,0.00,VWS V14.01,2013-03-21 00:54:00,
2013-03-20 16:55:00,15.5,4.5,29.97,NW,323,4.0,6.0,61,0.00,,---,0.00,VWS V14.01,2013-03-21 00:55:00,
2013-03-20 16:56:00,15.6,4.6,29.97,NW,321,2.0,6.0,61,0.00,,---,0.00,VWS V14.01,2013-03-21 00:56:00,
2013-03-20 16:57:00,15.7,4.3,29.97,NW,304,5.0,6.0,60,0.00,,---,0.00,VWS V14.01,2013-03-21 00:57:00,
2013-03-20 16:59:00,15.7,4.3,29.97,NW,323,3.0,6.0,60,0.00,,---,0.00,VWS V14.01,2013-03-21 00:59:00,
2013-03-20 17:00:00,15.7,4.3,29.97,NW,317,4.0,6.0,60,0.00,,---,0.00,VWS V14.01,2013-03-21 01:00:00,
2013-03-20 17:02:00,15.8,4.4,29.97,WNW,302,4.0,4.0,60,0.00,,---,0.00,VWS V14.01,2013-03-21 01:02:00,
2013-03-20 17:04:00,15.9,4.5,29.97,NW,325,3.0,6.0,60,0.00,,---,0.00,VWS V14.01,2013-03-21 01:04:00,
2013-03-20 17:05:00,15.9,4.5,29.97,NW,325,2.0,6.0,60,0.00,,---,0.00,VWS V14.01,2013-03-21 01:05:00,
2013-03-20 17:07:00,15.9,4.5,29.97,NW,322,3.0,4.0,60,0.00,,---,0.00,VWS V14.01,2013-03-21 01:07:00,
2013-03-20 17:09:00,15.9,4.5,29.97,NW,304,3.0,6.0,60,0.00,,---,0.00,VWS V14.01,2013-03-21 01:09:00,
2013-03-20 17:10:00,15.9,4.5,29.97,WNW,303,3.0,6.0,60,0.00,,---,0.00,VWS V14.01,2013-03-21 01:10:00,
2013-03-20 17:12:00,15.9,4.1,29.97,WNW,296,4.0,5.0,59,0.00,,---,0.00,VWS V14.01,2013-03-21 01:12:00,
2013-03-20 17:14:00,15.8,4.0,29.97,NW,317,5.0,7.0,59,0.00,,---,0.00,VWS V14.01,2013-03-21 01:14:00,
2013-03-20 17:15:00,15.8,4.0,29.97,NW,325,5.0,7.0,59,0.00,,---,0.00,VWS V14.01,2013-03-21 01:15:00,
2013-03-20 17:17:00,15.8,4.0,29.97,WNW,298,5.0,6.0,59,0.00,,---,0.00,VWS V14.01,2013-03-21 01:17:00,
2013-03-20 17:19:00,15.8,4.4,29.97,NNW,343,3.0,6.0,60,0.00,,---,0.00,VWS V14.01,2013-03-21 01:19:00,
2013-03-20 17:20:00,15.7,4.3,29.97,NNW,344,3.0,6.0,60,0.00,,---,0.00,VWS V14.01,2013-03-21 01:20:00,
2013-03-20 17:22:00,15.7,4.3,29.97,NW,321,4.0,4.0,60,0.00,,---,0.00,VWS V14.01,2013-03-21 01:22:00,
2013-03-20 17:23:00,15.7,4.3,29.97,North,355,3.0,5.0,60,0.00,,---,0.00,VWS V14.01,2013-03-21 01:23:00,
2013-03-20 17:24:00,15.6,4.2,29.97,North,355,4.0,5.0,60,0.00,,---,0.00,VWS V14.01,2013-03-21 01:24:00,
2013-03-20 17:26:00,15.5,4.1,29.97,NNW,346,5.0,5.0,60,0.00,,---,0.00,VWS V14.01,2013-03-21 01:26:00,
2013-03-20 17:27:00,15.5,4.1,29.97,NNW,336,4.0,5.0,60,0.00,,---,0.00,VWS V14.01,2013-03-21 01:27:00,
2013-03-20 17:28:00,15.4,4.0,29.97,NNW,345,3.0,6.0,60,0.00,,---,0.00,VWS V14.01,2013-03-21 01:28:00,
2013-03-20 17:29:00,15.4,4.0,29.97,North,355,5.0,6.0,60,0.00,,---,0.00,VWS V14.01,2013-03-21 01:29:00,
2013-03-20 17:31:00,15.1,3.4,29.97,NNW,342,5.0,9.0,59,0.00,,---,0.00,VWS V14.01,2013-03-21 01:31:00,
2013-03-20 17:33:00,14.8,3.1,29.98,North,360,6.0,9.0,59,0.00,,---,0.00,VWS V14.01,2013-03-21 01:33:00,
2013-03-20 17:35:00,14.5,3.2,29.98,NNW,337,5.0,9.0,60,0.00,,---,0.00,VWS V14.01,2013-03-21 01:35:00,
2013-03-20 17:36:00,14.3,3.3,29.97,North,355,5.0,9.0,61,0.00,,---,0.00,VWS V14.01,2013-03-21 01:36:00,
2013-03-20 17:38:00,14.3,3.3,29.98,North,349,4.0,7.0,61,0.00,,---,0.00,VWS V14.01,2013-03-21 01:38:00,
2013-03-20 17:40:00,14.3,3.7,29.97,NW,321,5.0,7.0,62,0.00,,---,0.00,VWS V14.01,2013-03-21 01:40:00,
2013-03-20 17:41:00,14.4,3.4,29.97,NW,323,4.0,4.0,61,0.00,,---,0.00,VWS V14.01,2013-03-21 01:41:00,
2013-03-20 17:43:00,14.4,3.4,29.97,North,355,3.0,7.0,61,0.00,,---,0.00,VWS V14.01,2013-03-21 01:43:00,
2013-03-20 17:44:00,14.3,3.3,29.98,North,355,8.0,8.0,61,0.00,,---,0.00,VWS V14.01,2013-03-21 01:44:00,
2013-03-20 17:45:00,14.1,2.8,29.97,North,355,6.0,8.0,60,0.00,,---,0.00,VWS V14.01,2013-03-21 01:45:00,
2013-03-20 17:47:00,14.0,2.7,29.98,NNW,338,3.0,8.0,60,0.00,,---,0.00,VWS V14.01,2013-03-21 01:47:00,
2013-03-20 17:48:00,14.0,3.0,29.98,NNE,13,4.0,5.0,61,0.00,,---,0.00,VWS V14.01,2013-03-21 01:48:00,
2013-03-20 17:49:00,14.0,3.0,29.98,North,355,6.0,8.0,61,0.00,,---,0.00,VWS V14.01,2013-03-21 01:49:00,
2013-03-20 17:50:00,13.9,3.0,29.98,North,351,3.0,8.0,61,0.00,,---,0.00,VWS V14.01,2013-03-21 01:50:00,
2013-03-20 17:52:00,13.7,3.1,29.98,NNW,332,4.0,4.0,62,0.00,,---,0.00,VWS V14.01,2013-03-21 01:52:00,
2013-03-20 17:53:00,13.7,3.1,29.98,NNW,338,5.0,6.0,62,0.00,,---,0.00,VWS V14.01,2013-03-21 01:53:00,
2013-03-20 17:54:00,13.7,3.1,29.98,NNW,346,9.0,9.0,62,0.00,,---,0.00,VWS V14.01,2013-03-21 01:54:00,
2013-03-20 17:55:00,13.6,2.7,29.98,NNW,333,4.0,9.0,61,0.00,,---,0.00,VWS V14.01,2013-03-21 01:55:00,
2013-03-20 17:57:00,13.6,2.7,29.98,NNW,332,3.0,6.0,61,0.00,,---,0.00,VWS V14.01,2013-03-21 01:57:00,
2013-03-20 17:58:00,13.6,3.0,29.98,NNW,348,3.0,6.0,62,0.00,,---,0.00,VWS V14.01,2013-03-21 01:58:00,
2013-03-20 17:59:00,13.6,3.0,29.98,NNW,345,4.0,6.0,62,0.00,,---,0.00,VWS V14.01,2013-03-21 01:59:00,
2013-03-20 18:01:00,13.7,3.1,29.98,NNW,331,4.0,7.0,62,0.00,,---,0.00,VWS V14.01,2013-03-21 02:01:00,
2013-03-20 18:02:00,13.7,3.1,29.98,North,355,5.0,5.0,62,0.00,,---,0.00,VWS V14.01,2013-03-21 02:02:00,
2013-03-20 18:04:00,13.7,3.1,29.98,NNW,332,4.0,8.0,62,0.00,,---,0.00,VWS V14.01,2013-03-21 02:04:00,
2013-03-20 18:06:00,13.7,2.8,29.98,NW,314,4.0,8.0,61,0.00,,---,0.00,VWS V14.01,2013-03-21 02:06:00,
2013-03-20 18:07:00,13.8,2.8,29.98,NW,306,8.0,8.0,61,0.00,,---,0.00,VWS V14.01,2013-03-21 02:07:00,
2013-03-20 18:09:00,13.8,2.5,29.98,NW,325,6.0,8.0,60,0.00,,---,0.00,VWS V14.01,2013-03-21 02:09:00,
2013-03-20 18:12:00,13.9,3.0,29.98,NW,319,4.0,6.0,61,0.00,,---,0.00,VWS V14.01,2013-03-21 02:12:00,
2013-03-20 18:13:00,13.9,2.6,29.98,WNW,302,5.0,6.0,60,0.00,,---,0.00,VWS V14.01,2013-03-21 02:13:00,
2013-03-20 18:14:00,14.0,2.7,29.98,NW,317,4.0,6.0,60,0.00,,---,0.00,VWS V14.01,2013-03-21 02:14:00,
2013-03-20 18:17:00,14.0,2.7,29.98,NNW,341,5.0,6.0,60,0.00,,---,0.00,VWS V14.01,2013-03-21 02:17:00,
2013-03-20 18:18:00,13.9,2.6,29.98,North,355,5.0,7.0,60,0.00,,---,0.00,VWS V14.01,2013-03-21 02:18:00,
2013-03-20 18:19:00,13.8,2.5,29.98,NNW,344,4.0,8.0,60,0.00,,---,0.00,VWS V14.01,2013-03-21 02:19:00,
2013-03-20 18:22:00,13.6,2.3,29.98,North,360,7.0,8.0,60,0.00,,---,0.00,VWS V14.01,2013-03-21 02:22:00,
2013-03-20 18:23:00,13.6,2.3,29.98,NW,316,7.0,8.0,60,0.00,,---,0.00,VWS V14.01,2013-03-21 02:23:00,
2013-03-20 18:24:00,13.7,2.4,29.98,NNW,344,8.0,8.0,60,0.00,,---,0.00,VWS V14.01,2013-03-21 02:24:00,
2013-03-20 18:25:00,13.7,2.4,29.98,NNW,337,6.0,10.0,60,0.00,,---,0.00,VWS V14.01,2013-03-21 02:25:00,
2013-03-20 18:27:00,13.8,2.1,29.98,NNW,328,6.0,7.0,59,0.00,,---,0.00,VWS V14.01,2013-03-21 02:27:00,
2013-03-20 18:28:00,13.8,2.1,29.98,NW,319,6.0,7.0,59,0.00,,---,0.00,VWS V14.01,2013-03-21 02:28:00,
2013-03-20 18:30:00,13.8,1.8,29.98,NNW,327,6.0,7.0,58,0.00,,---,0.00,VWS V14.01,2013-03-21 02:30:00,
2013-03-20 18:32:00,13.8,1.4,29.98,NW,316,8.0,8.0,57,0.00,,---,0.00,VWS V14.01,2013-03-21 02:32:00,
2013-03-20 18:33:00,13.7,1.3,29.98,NW,319,7.0,8.0,57,0.00,,---,0.00,VWS V14.01,2013-03-21 02:33:00,
2013-03-20 18:35:00,13.5,1.1,29.98,North,355,5.0,8.0,57,0.00,,---,0.00,VWS V14.01,2013-03-21 02:35:00,
2013-03-20 18:37:00,13.3,1.3,29.98,NW,314,5.0,6.0,58,0.00,,---,0.00,VWS V14.01,2013-03-21 02:37:00,
2013-03-20 18:38:00,13.2,1.2,29.98,NNW,340,3.0,6.0,58,0.00,,---,0.00,VWS V14.01,2013-03-21 02:38:00,
2013-03-20 18:40:00,13.2,1.2,29.98,NNW,336,4.0,6.0,58,0.00,,---,0.00,VWS V14.01,2013-03-21 02:40:00,
2013-03-20 18:42:00,13.1,1.1,29.98,NW,322,5.0,7.0,58,0.00,,---,0.00,VWS V14.01,2013-03-21 02:42:00,
2013-03-20 18:43:00,13.1,0.7,29.98,NW,313,4.0,7.0,57,0.00,,---,0.00,VWS V14.01,2013-03-21 02:43:00,
2013-03-20 18:45:00,13.2,0.8,29.98,NW,326,5.0,7.0,57,0.00,,---,0.00,VWS V14.01,2013-03-21 02:45:00,
2013-03-20 18:48:00,13.3,0.2,29.98,NW,323,4.0,7.0,55,0.00,,---,0.00,VWS V14.01,2013-03-21 02:48:00,
2013-03-20 18:50:00,13.3,0.6,29.98,NW,309,5.0,7.0,56,0.00,,---,0.00,VWS V14.01,2013-03-21 02:50:00,
2013-03-20 18:53:00,13.2,0.8,29.98,NW,319,3.0,6.0,57,0.00,,---,0.00,VWS V14.01,2013-03-21 02:53:00,
2013-03-20 18:54:00,13.1,0.7,29.98,West,278,3.0,6.0,57,0.00,,---,0.00,VWS V14.01,2013-03-21 02:54:00,
2013-03-20 18:55:00,13.1,0.7,29.98,WNW,294,4.0,7.0,57,0.00,,---,0.00,VWS V14.01,2013-03-21 02:55:00,
2013-03-20 18:58:00,13.0,0.3,29.98,NW,317,2.0,5.0,56,0.00,,---,0.00,VWS V14.01,2013-03-21 02:58:00,
2013-03-20 18:59:00,13.0,-0.1,29.98,WNW,287,6.0,6.0,55,0.00,,---,0.00,VWS V14.01,2013-03-21 02:59:00,
2013-03-20 19:00:00,13.0,-0.1,29.99,NW,304,7.0,7.0,55,0.00,,---,0.00,VWS V14.01,2013-03-21 03:00:00,
2013-03-20 19:01:00,13.0,-0.5,29.98,NW,306,3.0,7.0,54,0.00,,---,0.00,VWS V14.01,2013-03-21 03:01:00,
2013-03-20 19:04:00,12.9,-0.6,29.98,NW,323,3.0,8.0,54,0.00,,---,0.00,VWS V14.01,2013-03-21 03:04:00,
2013-03-20 19:05:00,12.8,-0.3,29.98,NW,326,3.0,8.0,55,0.00,,---,0.00,VWS V14.01,2013-03-21 03:05:00,
2013-03-20 19:06:00,12.8,-0.3,29.99,WNW,298,6.0,8.0,55,0.00,,---,0.00,VWS V14.01,2013-03-21 03:06:00,
2013-03-20 19:09:00,12.6,-0.5,29.99,WNW,290,4.0,7.0,55,0.00,,---,0.00,VWS V14.01,2013-03-21 03:09:00,
2013-03-20 19:10:00,12.6,-0.9,29.99,North,355,4.0,7.0,54,0.00,,---,0.00,VWS V14.01,2013-03-21 03:10:00,
2013-03-20 19:11:00,12.5,-0.6,29.99,North,5,2.0,7.0,55,0.00,,---,0.00,VWS V14.01,2013-03-21 03:11:00,
2013-03-20 19:14:00,12.3,-0.4,29.99,North,5,4.0,4.0,56,0.00,,---,0.00,VWS V14.01,2013-03-21 03:14:00,
2013-03-20 19:15:00,12.2,-0.5,29.99,North,355,4.0,4.0,56,0.00,,---,0.00,VWS V14.01,2013-03-21 03:15:00,
2013-03-20 19:16:00,12.2,-0.5,29.99,North,360,3.0,3.0,56,0.00,,---,0.00,VWS V14.01,2013-03-21 03:16:00,
2013-03-20 19:19:00,12.1,-0.6,29.99,North,349,3.0,4.0,56,0.00,,---,0.00,VWS V14.01,2013-03-21 03:19:00,
2013-03-20 19:20:00,12.0,-0.7,29.99,North,355,2.0,4.0,56,0.00,,---,0.00,VWS V14.01,2013-03-21 03:20:00,
2013-03-20 19:21:00,12.0,-0.3,29.99,North,5,3.0,3.0,57,0.00,,---,0.00,VWS V14.01,2013-03-21 03:21:00,
2013-03-20 19:24:00,11.9,-0.4,29.99,NNW,341,3.0,4.0,57,0.00,,---,0.00,VWS V14.01,2013-03-21 03:24:00,
2013-03-20 19:26:00,11.8,-0.5,29.99,North,355,3.0,4.0,57,0.00,,---,0.00,VWS V14.01,2013-03-21 03:26:00,
2013-03-20 19:27:00,11.7,-0.6,29.99,North,355,4.0,4.0,57,0.00,,---,0.00,VWS V14.01,2013-03-21 03:27:00,
2013-03-20 19:29:00,11.7,-0.6,29.99,NW,326,3.0,4.0,57,0.00,,---,0.00,VWS V14.01,2013-03-21 03:29:00,
2013-03-20 19:30:00,11.7,-0.2,29.99,NNW,338,3.0,4.0,58,0.00,,---,0.00,VWS V14.01,2013-03-21 03:30:00,
2013-03-20 19:31:00,11.7,-0.2,29.99,NW,325,4.0,4.0,58,0.00,,---,0.00,VWS V14.01,2013-03-21 03:31:00,
2013-03-20 19:32:00,11.7,-0.2,29.99,NNW,342,2.0,3.0,58,0.00,,---,0.00,VWS V14.01,2013-03-21 03:32:00,
2013-03-20 19:34:00,11.6,-0.3,29.99,North,5,3.0,4.0,58,0.00,,---,0.00,VWS V14.01,2013-03-21 03:34:00,
2013-03-20 19:35:00,11.5,-0.4,29.99,North,5,3.0,4.0,58,0.00,,---,0.00,VWS V14.01,2013-03-21 03:35:00,
2013-03-20 19:36:00,11.5,-0.4,29.99,North,350,4.0,4.0,58,0.00,,---,0.00,VWS V14.01,2013-03-21 03:36:00,
2013-03-20 19:37:00,11.4,-0.5,29.99,North,360,3.0,3.0,58,0.00,,---,0.00,VWS V14.01,2013-03-21 03:37:00,
2013-03-20 19:39:00,11.3,-0.2,29.99,NNW,340,3.0,4.0,59,0.00,,---,0.00,VWS V14.01,2013-03-21 03:39:00,
2013-03-20 19:40:00,11.3,-0.2,29.99,NNW,338,3.0,4.0,59,0.00,,---,0.00,VWS V14.01,2013-03-21 03:40:00,
2013-03-20 19:41:00,11.3,-0.2,29.99,NW,320,1.0,4.0,59,0.00,,---,0.00,VWS V14.01,2013-03-21 03:41:00,
2013-03-20 19:42:00,11.3,-0.2,29.99,NNW,340,3.0,5.0,59,0.00,,---,0.00,VWS V14.01,2013-03-21 03:42:00,
2013-03-20 19:45:00,11.3,-0.2,29.99,NNW,341,3.0,5.0,59,0.00,,---,0.00,VWS V14.01,2013-03-21 03:45:00,
2013-03-20 19:46:00,11.2,-0.7,29.99,NNW,345,2.0,5.0,58,0.00,,---,0.00,VWS V14.01,2013-03-21 03:46:00,
2013-03-20 19:47:00,11.2,-0.3,29.99,NNW,348,2.0,3.0,59,0.00,,---,0.00,VWS V14.01,2013-03-21 03:47:00,
2013-03-20 19:50:00,11.0,-0.5,29.99,NNW,347,2.0,3.0,59,0.00,,---,0.00,VWS V14.01,2013-03-21 03:50:00,
2013-03-20 19:51:00,10.9,-0.6,29.99,North,9,3.0,3.0,59,0.00,,---,0.00,VWS V14.01,2013-03-21 03:51:00,
2013-03-20 19:52:00,10.9,-0.6,29.99,NNE,15,4.0,4.0,59,0.00,,---,0.00,VWS V14.01,2013-03-21 03:52:00,
2013-03-20 19:55:00,10.6,-0.5,29.99,North,360,2.0,5.0,60,0.00,,---,0.00,VWS V14.01,2013-03-21 03:55:00,
2013-03-20 19:57:00,10.4,-0.7,29.99,NNW,348,3.0,4.0,60,0.00,,---,0.00,VWS V14.01,2013-03-21 03:57:00,
2013-03-20 20:00:00,10.2,-1.3,29.99,North,355,4.0,5.0,59,0.00,,---,0.00,VWS V14.01,2013-03-21 04:00:00,
2013-03-20 20:05:00,10.0,-1.5,29.99,NNE,23,4.0,5.0,59,0.00,,---,0.00,VWS V14.01,2013-03-21 04:05:00,
2013-03-20 20:10:00,9.9,-1.9,29.99,NNE,15,3.0,7.0,58,0.00,,---,0.00,VWS V14.01,2013-03-21 04:10:00,
2013-03-20 20:15:00,9.4,-2.4,29.99,NNE,13,4.0,6.0,58,0.00,,---,0.00,VWS V14.01,2013-03-21 04:15:00,
2013-03-20 20:16:00,9.3,-2.1,30.00,North,9,3.0,6.0,59,0.00,,---,0.00,VWS V14.01,2013-03-21 04:16:00,
2013-03-20 20:20:00,8.9,-2.1,30.00,NNW,346,4.0,5.0,60,0.00,,---,0.00,VWS V14.01,2013-03-21 04:20:00,
2013-03-20 20:21:00,8.7,-2.0,30.00,NW,324,3.0,5.0,61,0.00,,---,0.00,VWS V14.01,2013-03-21 04:21:00,
2013-03-20 20:25:00,8.3,-2.4,30.00,NNW,343,4.0,4.0,61,0.00,,---,0.00,VWS V14.01,2013-03-21 04:25:00,
2013-03-20 20:26:00,8.3,-2.4,30.00,NNW,339,5.0,5.0,61,0.00,,---,0.00,VWS V14.01,2013-03-21 04:26:00,
2013-03-20 20:30:00,7.8,-2.5,30.00,NW,326,3.0,4.0,62,0.00,,---,0.00,VWS V14.01,2013-03-21 04:30:00,
2013-03-20 20:31:00,7.7,-2.3,30.00,NW,320,2.0,4.0,63,0.00,,---,0.00,VWS V14.01,2013-03-21 04:31:00,
2013-03-20 20:32:00,7.7,-2.3,30.00,NW,323,2.0,4.0,63,0.00,,---,0.00,VWS V14.01,2013-03-21 04:32:00,
2013-03-20 20:35:00,8.3,-1.7,30.00,NNW,338,0.0,4.0,63,0.00,,---,0.00,VWS V14.01,2013-03-21 04:35:00,
2013-03-20 20:36:00,8.3,-1.7,30.00,NNW,338,0.0,4.0,63,0.00,,---,0.00,VWS V14.01,2013-03-21 04:36:00,
2013-03-20 20:37:00,8.2,-1.1,30.00,NNW,338,2.0,3.0,65,0.00,,---,0.00,VWS V14.01,2013-03-21 04:37:00,
2013-03-20 20:40:00,7.9,-1.4,30.00,NNW,336,2.0,3.0,65,0.00,,---,0.00,VWS V14.01,2013-03-21 04:40:00,
2013-03-20 20:41:00,7.8,-1.5,30.00,NNW,336,1.0,5.0,65,0.00,,---,0.00,VWS V14.01,2013-03-21 04:41:00,
2013-03-20 20:42:00,7.8,-1.5,30.00,NNW,336,1.0,2.0,65,0.00,,---,0.00,VWS V14.01,2013-03-21 04:42:00,
2013-03-20 20:46:00,7.6,-1.7,30.00,NNW,336,2.0,4.0,65,0.00,,---,0.00,VWS V14.01,2013-03-21 04:46:00,
2013-03-20 20:47:00,7.5,-1.8,30.00,NNW,336,3.0,4.0,65,0.00,,---,0.00,VWS V14.01,2013-03-21 04:47:00,
2013-03-20 20:51:00,7.1,-2.2,30.00,NNW,331,2.0,5.0,65,0.00,,---,0.00,VWS V14.01,2013-03-21 04:51:00,
2013-03-20 20:52:00,7.0,-2.0,30.00,NNW,331,2.0,2.0,66,0.00,,---,0.00,VWS V14.01,2013-03-21 04:52:00,
2013-03-20 20:56:00,6.5,-2.1,30.00,North,349,3.0,6.0,67,0.00,,---,0.00,VWS V14.01,2013-03-21 04:56:00,
2013-03-20 20:57:00,6.5,-2.1,30.00,North,349,5.0,6.0,67,0.00,,---,0.00,VWS V14.01,2013-03-21 04:57:00,
2013-03-20 21:02:00,6.6,-1.7,30.00,NW,320,3.0,4.0,68,0.00,,---,0.00,VWS V14.01,2013-03-21 05:02:00,
2013-03-20 21:07:00,6.5,-2.4,30.00,NW,306,4.0,5.0,66,0.00,,---,0.00,VWS V14.01,2013-03-21 05:07:00,
2013-03-20 21:12:00,5.9,-3.3,30.00,NW,311,3.0,5.0,65,0.00,,---,0.00,VWS V14.01,2013-03-21 05:12:00,
2013-03-20 21:17:00,5.3,-3.6,30.00,NW,311,4.0,4.0,66,0.00,,---,0.00,VWS V14.01,2013-03-21 05:17:00,
2013-03-20 21:18:00,5.1,-3.8,30.00,NW,311,3.0,5.0,66,0.00,,---,0.00,VWS V14.01,2013-03-21 05:18:00,
2013-03-20 21:22:00,4.2,-4.0,30.00,NW,325,3.0,5.0,68,0.00,,---,0.00,VWS V14.01,2013-03-21 05:22:00,
2013-03-20 21:23:00,4.1,-4.1,30.00,NW,325,4.0,5.0,68,0.00,,---,0.00,VWS V14.01,2013-03-21 05:23:00,
2013-03-20 21:27:00,4.0,-3.6,30.01,NW,325,2.0,4.0,70,0.00,,---,0.00,VWS V14.01,2013-03-21 05:27:00,
2013-03-20 21:28:00,4.1,-3.5,30.01,NW,325,2.0,4.0,70,0.00,,---,0.00,VWS V14.01,2013-03-21 05:28:00,
2013-03-20 21:32:00,4.3,-3.0,30.01,NW,325,0.0,2.0,71,0.00,,---,0.00,VWS V14.01,2013-03-21 05:32:00,
2013-03-20 21:33:00,4.3,-3.0,30.01,NW,325,0.0,2.0,71,0.00,,---,0.00,VWS V14.01,2013-03-21 05:33:00,
2013-03-20 21:37:00,4.0,-3.9,30.01,NW,325,0.0,1.0,69,0.00,,---,0.00,VWS V14.01,2013-03-21 05:37:00,
2013-03-20 21:38:00,4.0,-3.9,30.01,NW,325,0.0,1.0,69,0.00,,---,0.00,VWS V14.01,2013-03-21 05:38:00,
2013-03-20 21:39:00,3.9,-4.0,30.01,NW,325,0.0,1.0,69,0.00,,---,0.00,VWS V14.01,2013-03-21 05:39:00,
2013-03-20 21:43:00,3.4,-4.5,30.01,NW,325,0.0,0.0,69,0.00,,---,0.00,VWS V14.01,2013-03-21 05:43:00,
2013-03-20 21:44:00,3.2,-4.7,30.01,NW,325,0.0,0.0,69,0.00,,---,0.00,VWS V14.01,2013-03-21 05:44:00,
2013-03-20 21:48:00,2.7,-4.8,30.01,NW,325,0.0,3.0,70,0.00,,---,0.00,VWS V14.01,2013-03-21 05:48:00,
2013-03-20 21:49:00,2.6,-4.7,30.01,NW,325,0.0,3.0,71,0.00,,---,0.00,VWS V14.01,2013-03-21 05:49:00,
2013-03-20 21:53:00,2.2,-4.7,30.01,NW,325,1.0,2.0,72,0.00,,---,0.00,VWS V14.01,2013-03-21 05:53:00,
2013-03-20 21:54:00,2.2,-4.7,30.01,NW,325,0.0,2.0,72,0.00,,---,0.00,VWS V14.01,2013-03-21 05:54:00,
2013-03-20 21:58:00,2.1,-4.6,30.01,NW,325,0.0,0.0,73,0.00,,---,0.00,VWS V14.01,2013-03-21 05:58:00,
2013-03-20 21:59:00,2.0,-2.0,30.01,NW,325,0.0,0.0,83,0.00,,---,0.00,VWS V14.01,2013-03-21 05:59:00,
2013-03-20 22:03:00,1.5,-5.4,30.01,NW,325,0.0,0.0,72,0.00,,---,0.00,VWS V14.01,2013-03-21 06:03:00,
2013-03-20 22:04:00,1.5,-5.4,30.01,NW,325,0.0,0.0,72,0.00,,---,0.00,VWS V14.01,2013-03-21 06:04:00,
2013-03-20 22:05:00,1.3,-5.9,30.01,NW,325,0.0,0.0,71,0.00,,---,0.00,VWS V14.01,2013-03-21 06:05:00,
2013-03-20 22:09:00,0.8,-6.1,30.01,NW,325,0.0,0.0,72,0.00,,---,0.00,VWS V14.01,2013-03-21 06:09:00,
2013-03-20 22:10:00,0.6,-6.0,30.01,NW,325,0.0,0.0,73,0.00,,---,0.00,VWS V14.01,2013-03-21 06:10:00,
2013-03-20 22:14:00,0.2,-6.1,30.01,NW,325,0.0,0.0,74,0.00,,---,0.00,VWS V14.01,2013-03-21 06:14:00,
2013-03-20 22:16:00,0.2,-6.1,30.02,NW,325,0.0,0.0,74,0.00,,---,0.00,VWS V14.01,2013-03-21 06:16:00,
2013-03-20 22:19:00,0.1,-6.0,30.02,NW,325,0.0,2.0,75,0.00,,---,0.00,VWS V14.01,2013-03-21 06:19:00,
2013-03-20 22:21:00,-0.2,-6.2,30.01,NW,325,2.0,2.0,75,0.00,,---,0.00,VWS V14.01,2013-03-21 06:21:00,
2013-03-20 22:24:00,-0.1,-6.1,30.01,NW,325,2.0,4.0,75,0.00,,---,0.00,VWS V14.01,2013-03-21 06:24:00,
2013-03-20 22:25:00,-0.1,-6.1,30.01,NW,325,0.0,4.0,75,0.00,,---,0.00,VWS V14.01,2013-03-21 06:25:00,
2013-03-20 22:26:00,-0.1,-6.0,30.01,NW,325,2.0,4.0,75,0.00,,---,0.00,VWS V14.01,2013-03-21 06:26:00,
2013-03-20 22:30:00,0.4,-5.6,30.01,NW,325,3.0,4.0,75,0.00,,---,0.00,VWS V14.01,2013-03-21 06:30:00,
2013-03-20 22:31:00,0.5,-5.8,30.01,NW,325,1.0,4.0,74,0.00,,---,0.00,VWS V14.01,2013-03-21 06:31:00,
2013-03-20 22:35:00,0.7,-5.9,30.01,NW,324,1.0,5.0,73,0.00,,---,0.00,VWS V14.01,2013-03-21 06:35:00,
2013-03-20 22:36:00,0.8,-5.8,30.01,NW,324,0.0,5.0,73,0.00,,---,0.00,VWS V14.01,2013-03-21 06:36:00,
2013-03-20 22:40:00,0.7,-5.9,30.01,NW,324,0.0,3.0,73,0.00,,---,0.00,VWS V14.01,2013-03-21 06:40:00,
2013-03-20 22:42:00,0.5,-6.4,30.01,NW,324,0.0,0.0,72,0.00,,---,0.00,VWS V14.01,2013-03-21 06:42:00,
2013-03-20 22:45:00,0.1,-7.1,30.01,NW,324,0.0,0.0,71,0.00,,---,0.00,VWS V14.01,2013-03-21 06:45:00,
2013-03-20 22:47:00,-0.1,-7.2,30.01,NW,324,0.0,0.0,71,0.00,,---,0.00,VWS V14.01,2013-03-21 06:47:00,
2013-03-20 22:50:00,-0.6,-7.4,30.01,NW,324,0.0,0.0,72,0.00,,---,0.00,VWS V14.01,2013-03-21 06:50:00,
2013-03-20 22:51:00,-0.6,-7.4,30.01,NW,324,0.0,0.0,72,0.00,,---,0.00,VWS V14.01,2013-03-21 06:51:00,
2013-03-20 22:52:00,0.1,-6.8,30.01,NNE,12,2.0,2.0,72,0.00,,---,0.00,VWS V14.01,2013-03-21 06:52:00,
2013-03-20 22:55:00,-0.6,-8.9,30.01,North,9,2.0,3.0,67,0.00,,---,0.00,VWS V14.01,2013-03-21 06:55:00,
2013-03-20 22:56:00,-0.6,-8.6,30.01,North,9,2.0,3.0,68,0.00,,---,0.00,VWS V14.01,2013-03-21 06:56:00,
2013-03-20 22:57:00,-0.8,-8.8,30.01,NW,311,2.0,3.0,68,0.00,,---,0.00,VWS V14.01,2013-03-21 06:57:00,
2013-03-20 23:01:00,-0.8,-8.5,30.01,NNE,32,2.0,3.0,69,0.00,,---,0.00,VWS V14.01,2013-03-21 07:01:00,
2013-03-20 23:02:00,-0.9,-8.6,30.01,North,11,3.0,3.0,69,0.00,,---,0.00,VWS V14.01,2013-03-21 07:02:00,
2013-03-20 23:06:00,-1.2,-8.9,30.01,North,11,2.0,3.0,69,0.00,,---,0.00,VWS V14.01,2013-03-21 07:06:00,
2013-03-20 23:07:00,-1.4,-9.1,30.01,North,11,2.0,2.0,69,0.00,,---,0.00,VWS V14.01,2013-03-21 07:07:00,
2013-03-20 23:11:00,-1.9,-9.3,30.01,North,5,1.0,2.0,70,0.00,,---,0.00,VWS V14.01,2013-03-21 07:11:00,
2013-03-20 23:12:00,-2.0,-9.4,30.01,North,5,2.0,3.0,70,0.00,,---,0.00,VWS V14.01,2013-03-21 07:12:00,
2013-03-20 23:13:00,-2.1,-9.5,30.01,North,5,2.0,3.0,70,0.00,,---,0.00,VWS V14.01,2013-03-21 07:13:00,
2013-03-20 23:17:00,-2.6,-9.7,30.01,NNW,331,2.0,4.0,71,0.00,,---,0.00,VWS V14.01,2013-03-21 07:17:00,
2013-03-20 23:18:00,-2.6,-9.7,30.01,NNW,327,2.0,4.0,71,0.00,,---,0.00,VWS V14.01,2013-03-21 07:18:00,
2013-03-20 23:22:00,-2.7,-9.5,30.01,NE,34,2.0,3.0,72,0.00,,---,0.00,VWS V14.01,2013-03-21 07:22:00,
2013-03-20 23:23:00,-2.7,-9.5,30.01,NNE,30,1.0,3.0,72,0.00,,---,0.00,VWS V14.01,2013-03-21 07:23:00,
2013-03-20 23:27:00,-3.2,-9.7,30.01,NNW,346,0.0,1.0,73,0.00,,---,0.00,VWS V14.01,2013-03-21 07:27:00,
2013-03-20 23:28:00,-3.2,-9.7,30.01,NNW,340,1.0,2.0,73,0.00,,---,0.00,VWS V14.01,2013-03-21 07:28:00,
2013-03-20 23:32:00,-3.9,-10.4,30.01,North,360,2.0,2.0,73,0.00,,---,0.00,VWS V14.01,2013-03-21 07:32:00,
2013-03-20 23:33:00,-4.1,-10.6,30.01,North,5,2.0,3.0,73,0.00,,---,0.00,VWS V14.01,2013-03-21 07:33:00,
2013-03-20 23:34:00,-4.2,-10.9,30.01,North,360,2.0,3.0,72,0.00,,---,0.00,VWS V14.01,2013-03-21 07:34:00,
2013-03-20 23:37:00,-4.7,-11.1,30.01,NW,309,2.0,2.0,73,0.00,,---,0.00,VWS V14.01,2013-03-21 07:37:00,
2013-03-20 23:38:00,-4.8,-11.0,30.01,WNW,288,2.0,3.0,74,0.00,,---,0.00,VWS V14.01,2013-03-21 07:38:00,
2013-03-20 23:39:00,-4.8,-11.0,30.01,WNW,287,2.0,3.0,74,0.00,,---,0.00,VWS V14.01,2013-03-21 07:39:00,
2013-03-20 23:42:00,-4.8,-10.7,30.01,NW,306,2.0,3.0,75,0.00,,---,0.00,VWS V14.01,2013-03-21 07:42:00,
2013-03-20 23:43:00,-4.7,-10.6,30.01,WNW,299,4.0,4.0,75,0.00,,---,0.00,VWS V14.01,2013-03-21 07:43:00,
2013-03-20 23:44:00,-4.7,-10.6,30.02,WNW,302,2.0,4.0,75,0.00,,---,0.00,VWS V14.01,2013-03-21 07:44:00,
2013-03-20 23:47:00,-4.4,-10.3,30.02,NW,323,2.0,3.0,75,0.00,,---,0.00,VWS V14.01,2013-03-21 07:47:00,
2013-03-20 23:49:00,-4.2,-9.8,30.02,NW,317,3.0,3.0,76,0.00,,---,0.00,VWS V14.01,2013-03-21 07:49:00,
2013-03-20 23:53:00,-3.9,-10.1,30.02,NNW,347,2.0,3.0,74,0.00,,---,0.00,VWS V14.01,2013-03-21 07:53:00,
2013-03-20 23:54:00,-3.9,-10.1,30.02,North,355,3.0,4.0,74,0.00,,---,0.00,VWS V14.01,2013-03-21 07:54:00,
2013-03-20 23:58:00,-4.2,-10.6,30.02,North,355,4.0,4.0,73,0.00,,---,0.00,VWS V14.01,2013-03-21 07:58:00,
2013-03-20 23:59:00,-4.3,-10.7,30.02,North,355,3.0,4.0,73,0.00,,---,0.00,VWS V14.01,2013-03-21 07:59:00,